<?xml version="1.0" encoding="UTF-8" standalone="no" ?>
<gpx xmlns="http://www.topografix.com/GPX/1/1" xmlns:xsi="http://www.w3.org/2001/XMLSchema-instance" xsi:schemaLocation="http://www.topografix.com/GPX/1/1 http://www.topografix.com/GPX/1/1/gpx.xsd" version="1.1" creator="VisuGPX - https://www.visugpx.com">
  <metadata>
    <name>04-D-Estoublon</name>
    <desc><![CDATA[04-D-Estoublon : Les gorges de Trévans]]></desc>
  </metadata>
  <trk>
    <name><![CDATA[2018-09-23-D-PC-Estoublon Les gorges deTrévans]]></name>
    <trkseg>
      <trkpt lat="43.94748" lon="6.2218">
        <ele>611</ele>
        <time>2018-09-23T07:53:11Z</time>
      </trkpt>
      <trkpt lat="43.94748" lon="6.2218">
        <ele>611</ele>
        <time>2018-09-23T07:53:12Z</time>
      </trkpt>
      <trkpt lat="43.94764" lon="6.2219">
        <ele>611</ele>
        <time>2018-09-23T08:00:04Z</time>
      </trkpt>
      <trkpt lat="43.94772" lon="6.22197">
        <ele>611</ele>
        <time>2018-09-23T08:00:13Z</time>
      </trkpt>
      <trkpt lat="43.94781" lon="6.22191">
        <ele>611.1</ele>
        <time>2018-09-23T08:00:23Z</time>
      </trkpt>
      <trkpt lat="43.94787" lon="6.22181">
        <ele>611.8</ele>
        <time>2018-09-23T08:00:35Z</time>
      </trkpt>
      <trkpt lat="43.94797" lon="6.22178">
        <ele>612.4</ele>
        <time>2018-09-23T08:00:45Z</time>
      </trkpt>
      <trkpt lat="43.94806" lon="6.22182">
        <ele>612.8</ele>
        <time>2018-09-23T08:00:54Z</time>
      </trkpt>
      <trkpt lat="43.94815" lon="6.22184">
        <ele>613.3</ele>
        <time>2018-09-23T08:01:04Z</time>
      </trkpt>
      <trkpt lat="43.94821" lon="6.22193">
        <ele>613.7</ele>
        <time>2018-09-23T08:01:13Z</time>
      </trkpt>
      <trkpt lat="43.94827" lon="6.22205">
        <ele>614.2</ele>
        <time>2018-09-23T08:01:22Z</time>
      </trkpt>
      <trkpt lat="43.94832" lon="6.22217">
        <ele>614.7</ele>
        <time>2018-09-23T08:01:33Z</time>
      </trkpt>
      <trkpt lat="43.94829" lon="6.22229">
        <ele>615.9</ele>
        <time>2018-09-23T08:03:29Z</time>
      </trkpt>
      <trkpt lat="43.94823" lon="6.22238">
        <ele>615.6</ele>
        <time>2018-09-23T08:03:39Z</time>
      </trkpt>
      <trkpt lat="43.94818" lon="6.2225">
        <ele>615.3</ele>
        <time>2018-09-23T08:03:48Z</time>
      </trkpt>
      <trkpt lat="43.94815" lon="6.22262">
        <ele>614.7</ele>
        <time>2018-09-23T08:03:58Z</time>
      </trkpt>
      <trkpt lat="43.94812" lon="6.22275">
        <ele>614</ele>
        <time>2018-09-23T08:04:10Z</time>
      </trkpt>
      <trkpt lat="43.94812" lon="6.22288">
        <ele>613.1</ele>
        <time>2018-09-23T08:04:20Z</time>
      </trkpt>
      <trkpt lat="43.94813" lon="6.22302">
        <ele>612.5</ele>
        <time>2018-09-23T08:04:29Z</time>
      </trkpt>
      <trkpt lat="43.9481" lon="6.22314">
        <ele>611.9</ele>
        <time>2018-09-23T08:04:38Z</time>
      </trkpt>
      <trkpt lat="43.94806" lon="6.22326">
        <ele>611.2</ele>
        <time>2018-09-23T08:04:47Z</time>
      </trkpt>
      <trkpt lat="43.94805" lon="6.22339">
        <ele>610.7</ele>
        <time>2018-09-23T08:04:56Z</time>
      </trkpt>
      <trkpt lat="43.94807" lon="6.22352">
        <ele>610.2</ele>
        <time>2018-09-23T08:05:06Z</time>
      </trkpt>
      <trkpt lat="43.94809" lon="6.22365">
        <ele>609.8</ele>
        <time>2018-09-23T08:05:15Z</time>
      </trkpt>
      <trkpt lat="43.94811" lon="6.22379">
        <ele>609.4</ele>
        <time>2018-09-23T08:05:27Z</time>
      </trkpt>
      <trkpt lat="43.94812" lon="6.22391">
        <ele>609.2</ele>
        <time>2018-09-23T08:05:36Z</time>
      </trkpt>
      <trkpt lat="43.94812" lon="6.22405">
        <ele>609</ele>
        <time>2018-09-23T08:05:47Z</time>
      </trkpt>
      <trkpt lat="43.94811" lon="6.22418">
        <ele>608.9</ele>
        <time>2018-09-23T08:05:53Z</time>
      </trkpt>
      <trkpt lat="43.9481" lon="6.2243">
        <ele>608.8</ele>
        <time>2018-09-23T08:05:59Z</time>
      </trkpt>
      <trkpt lat="43.94808" lon="6.22444">
        <ele>608.6</ele>
        <time>2018-09-23T08:06:08Z</time>
      </trkpt>
      <trkpt lat="43.94806" lon="6.22456">
        <ele>608.5</ele>
        <time>2018-09-23T08:06:17Z</time>
      </trkpt>
      <trkpt lat="43.94803" lon="6.22468">
        <ele>608.4</ele>
        <time>2018-09-23T08:06:26Z</time>
      </trkpt>
      <trkpt lat="43.94801" lon="6.22482">
        <ele>608.4</ele>
        <time>2018-09-23T08:06:33Z</time>
      </trkpt>
      <trkpt lat="43.94798" lon="6.22495">
        <ele>608.4</ele>
        <time>2018-09-23T08:06:42Z</time>
      </trkpt>
      <trkpt lat="43.94795" lon="6.22507">
        <ele>608.4</ele>
        <time>2018-09-23T08:06:52Z</time>
      </trkpt>
      <trkpt lat="43.9479" lon="6.22518">
        <ele>608.4</ele>
        <time>2018-09-23T08:07:00Z</time>
      </trkpt>
      <trkpt lat="43.94785" lon="6.22529">
        <ele>608.7</ele>
        <time>2018-09-23T08:07:10Z</time>
      </trkpt>
      <trkpt lat="43.94777" lon="6.22536">
        <ele>608.9</ele>
        <time>2018-09-23T08:07:19Z</time>
      </trkpt>
      <trkpt lat="43.9477" lon="6.22547">
        <ele>609.2</ele>
        <time>2018-09-23T08:07:28Z</time>
      </trkpt>
      <trkpt lat="43.94763" lon="6.22554">
        <ele>609.3</ele>
        <time>2018-09-23T08:07:34Z</time>
      </trkpt>
      <trkpt lat="43.94756" lon="6.22564">
        <ele>609.6</ele>
        <time>2018-09-23T08:07:43Z</time>
      </trkpt>
      <trkpt lat="43.94748" lon="6.2256">
        <ele>610.1</ele>
        <time>2018-09-23T08:07:54Z</time>
      </trkpt>
      <trkpt lat="43.94741" lon="6.22552">
        <ele>610.5</ele>
        <time>2018-09-23T08:08:01Z</time>
      </trkpt>
      <trkpt lat="43.94732" lon="6.22551">
        <ele>611.1</ele>
        <time>2018-09-23T08:08:18Z</time>
      </trkpt>
      <trkpt lat="43.94725" lon="6.2256">
        <ele>611.8</ele>
        <time>2018-09-23T08:10:00Z</time>
      </trkpt>
      <trkpt lat="43.94718" lon="6.22569">
        <ele>611.8</ele>
        <time>2018-09-23T08:10:20Z</time>
      </trkpt>
      <trkpt lat="43.9471" lon="6.22577">
        <ele>611.8</ele>
        <time>2018-09-23T08:10:30Z</time>
      </trkpt>
      <trkpt lat="43.94704" lon="6.22586">
        <ele>611.8</ele>
        <time>2018-09-23T08:10:44Z</time>
      </trkpt>
      <trkpt lat="43.94699" lon="6.22597">
        <ele>611.8</ele>
        <time>2018-09-23T08:10:59Z</time>
      </trkpt>
      <trkpt lat="43.94696" lon="6.2261">
        <ele>611.8</ele>
        <time>2018-09-23T08:11:13Z</time>
      </trkpt>
      <trkpt lat="43.94695" lon="6.22622">
        <ele>611.8</ele>
        <time>2018-09-23T08:11:23Z</time>
      </trkpt>
      <trkpt lat="43.94694" lon="6.22636">
        <ele>612</ele>
        <time>2018-09-23T08:11:30Z</time>
      </trkpt>
      <trkpt lat="43.94694" lon="6.2265">
        <ele>612.2</ele>
        <time>2018-09-23T08:11:39Z</time>
      </trkpt>
      <trkpt lat="43.94697" lon="6.22662">
        <ele>612.4</ele>
        <time>2018-09-23T08:11:48Z</time>
      </trkpt>
      <trkpt lat="43.94704" lon="6.22672">
        <ele>612.6</ele>
        <time>2018-09-23T08:11:57Z</time>
      </trkpt>
      <trkpt lat="43.9471" lon="6.22682">
        <ele>613</ele>
        <time>2018-09-23T08:12:07Z</time>
      </trkpt>
      <trkpt lat="43.94716" lon="6.22692">
        <ele>613.4</ele>
        <time>2018-09-23T08:12:16Z</time>
      </trkpt>
      <trkpt lat="43.94723" lon="6.22702">
        <ele>613.9</ele>
        <time>2018-09-23T08:12:26Z</time>
      </trkpt>
      <trkpt lat="43.94727" lon="6.22714">
        <ele>614.4</ele>
        <time>2018-09-23T08:12:34Z</time>
      </trkpt>
      <trkpt lat="43.94733" lon="6.22724">
        <ele>614.6</ele>
        <time>2018-09-23T08:12:41Z</time>
      </trkpt>
      <trkpt lat="43.94736" lon="6.22739">
        <ele>614.9</ele>
        <time>2018-09-23T08:12:50Z</time>
      </trkpt>
      <trkpt lat="43.9474" lon="6.22751">
        <ele>615.4</ele>
        <time>2018-09-23T08:13:04Z</time>
      </trkpt>
      <trkpt lat="43.94746" lon="6.22761">
        <ele>616.2</ele>
        <time>2018-09-23T08:13:16Z</time>
      </trkpt>
      <trkpt lat="43.94753" lon="6.22776">
        <ele>617</ele>
        <time>2018-09-23T08:13:38Z</time>
      </trkpt>
      <trkpt lat="43.9476" lon="6.22784">
        <ele>617</ele>
        <time>2018-09-23T08:13:41Z</time>
      </trkpt>
      <trkpt lat="43.94769" lon="6.22793">
        <ele>617.2</ele>
        <time>2018-09-23T08:13:48Z</time>
      </trkpt>
      <trkpt lat="43.94777" lon="6.22799">
        <ele>617.3</ele>
        <time>2018-09-23T08:13:55Z</time>
      </trkpt>
      <trkpt lat="43.94781" lon="6.2281">
        <ele>617.6</ele>
        <time>2018-09-23T08:14:03Z</time>
      </trkpt>
      <trkpt lat="43.94786" lon="6.22822">
        <ele>617.9</ele>
        <time>2018-09-23T08:14:13Z</time>
      </trkpt>
      <trkpt lat="43.94791" lon="6.22834">
        <ele>618.4</ele>
        <time>2018-09-23T08:14:23Z</time>
      </trkpt>
      <trkpt lat="43.94796" lon="6.22845">
        <ele>618.6</ele>
        <time>2018-09-23T08:14:29Z</time>
      </trkpt>
      <trkpt lat="43.94799" lon="6.22857">
        <ele>619.2</ele>
        <time>2018-09-23T08:14:44Z</time>
      </trkpt>
      <trkpt lat="43.94794" lon="6.22867">
        <ele>620</ele>
        <time>2018-09-23T08:14:54Z</time>
      </trkpt>
      <trkpt lat="43.94789" lon="6.22878">
        <ele>620.3</ele>
        <time>2018-09-23T08:14:59Z</time>
      </trkpt>
      <trkpt lat="43.94782" lon="6.22889">
        <ele>620.7</ele>
        <time>2018-09-23T08:15:08Z</time>
      </trkpt>
      <trkpt lat="43.94778" lon="6.22901">
        <ele>621.1</ele>
        <time>2018-09-23T08:15:16Z</time>
      </trkpt>
      <trkpt lat="43.94775" lon="6.22914">
        <ele>621.9</ele>
        <time>2018-09-23T08:15:31Z</time>
      </trkpt>
      <trkpt lat="43.94768" lon="6.22923">
        <ele>622.2</ele>
        <time>2018-09-23T08:15:37Z</time>
      </trkpt>
      <trkpt lat="43.94767" lon="6.22936">
        <ele>622.8</ele>
        <time>2018-09-23T08:15:47Z</time>
      </trkpt>
      <trkpt lat="43.94768" lon="6.2295">
        <ele>623.6</ele>
        <time>2018-09-23T08:15:59Z</time>
      </trkpt>
      <trkpt lat="43.94766" lon="6.22964">
        <ele>624.2</ele>
        <time>2018-09-23T08:16:09Z</time>
      </trkpt>
      <trkpt lat="43.94764" lon="6.22977">
        <ele>624.6</ele>
        <time>2018-09-23T08:16:17Z</time>
      </trkpt>
      <trkpt lat="43.9476" lon="6.2299">
        <ele>625</ele>
        <time>2018-09-23T08:16:26Z</time>
      </trkpt>
      <trkpt lat="43.94756" lon="6.23003">
        <ele>625.6</ele>
        <time>2018-09-23T08:16:34Z</time>
      </trkpt>
      <trkpt lat="43.94757" lon="6.23017">
        <ele>626.3</ele>
        <time>2018-09-23T08:16:44Z</time>
      </trkpt>
      <trkpt lat="43.94756" lon="6.2303">
        <ele>626.9</ele>
        <time>2018-09-23T08:16:51Z</time>
      </trkpt>
      <trkpt lat="43.94756" lon="6.23042">
        <ele>627.4</ele>
        <time>2018-09-23T08:16:59Z</time>
      </trkpt>
      <trkpt lat="43.94758" lon="6.23055">
        <ele>627.8</ele>
        <time>2018-09-23T08:17:06Z</time>
      </trkpt>
      <trkpt lat="43.94759" lon="6.23068">
        <ele>628.3</ele>
        <time>2018-09-23T08:17:13Z</time>
      </trkpt>
      <trkpt lat="43.94762" lon="6.23079">
        <ele>628.8</ele>
        <time>2018-09-23T08:17:21Z</time>
      </trkpt>
      <trkpt lat="43.94767" lon="6.2309">
        <ele>629.4</ele>
        <time>2018-09-23T08:17:29Z</time>
      </trkpt>
      <trkpt lat="43.94766" lon="6.23104">
        <ele>630</ele>
        <time>2018-09-23T08:17:39Z</time>
      </trkpt>
      <trkpt lat="43.94766" lon="6.23116">
        <ele>630.3</ele>
        <time>2018-09-23T08:17:48Z</time>
      </trkpt>
      <trkpt lat="43.9477" lon="6.23128">
        <ele>630.5</ele>
        <time>2018-09-23T08:17:58Z</time>
      </trkpt>
      <trkpt lat="43.94768" lon="6.23142">
        <ele>630.7</ele>
        <time>2018-09-23T08:18:12Z</time>
      </trkpt>
      <trkpt lat="43.94764" lon="6.23154">
        <ele>630.7</ele>
        <time>2018-09-23T08:18:34Z</time>
      </trkpt>
      <trkpt lat="43.9476" lon="6.23167">
        <ele>630.8</ele>
        <time>2018-09-23T08:18:50Z</time>
      </trkpt>
      <trkpt lat="43.9475" lon="6.23173">
        <ele>631</ele>
        <time>2018-09-23T08:19:00Z</time>
      </trkpt>
      <trkpt lat="43.94741" lon="6.23178">
        <ele>631.1</ele>
        <time>2018-09-23T08:19:05Z</time>
      </trkpt>
      <trkpt lat="43.94732" lon="6.23177">
        <ele>631.2</ele>
        <time>2018-09-23T08:19:10Z</time>
      </trkpt>
      <trkpt lat="43.94723" lon="6.23183">
        <ele>631.2</ele>
        <time>2018-09-23T08:19:16Z</time>
      </trkpt>
      <trkpt lat="43.94718" lon="6.23195">
        <ele>631.3</ele>
        <time>2018-09-23T08:19:17Z</time>
      </trkpt>
      <trkpt lat="43.94715" lon="6.23209">
        <ele>631.3</ele>
        <time>2018-09-23T08:19:22Z</time>
      </trkpt>
      <trkpt lat="43.9471" lon="6.2322">
        <ele>631.3</ele>
        <time>2018-09-23T08:19:31Z</time>
      </trkpt>
      <trkpt lat="43.94701" lon="6.23229">
        <ele>630.2</ele>
        <time>2018-09-23T08:20:07Z</time>
      </trkpt>
      <trkpt lat="43.94693" lon="6.23236">
        <ele>630.1</ele>
        <time>2018-09-23T08:20:10Z</time>
      </trkpt>
      <trkpt lat="43.94692" lon="6.23249">
        <ele>629.2</ele>
        <time>2018-09-23T08:20:42Z</time>
      </trkpt>
      <trkpt lat="43.94698" lon="6.23259">
        <ele>629.3</ele>
        <time>2018-09-23T08:20:50Z</time>
      </trkpt>
      <trkpt lat="43.94702" lon="6.23272">
        <ele>629.6</ele>
        <time>2018-09-23T08:20:55Z</time>
      </trkpt>
      <trkpt lat="43.94709" lon="6.23282">
        <ele>630</ele>
        <time>2018-09-23T08:21:02Z</time>
      </trkpt>
      <trkpt lat="43.94713" lon="6.23294">
        <ele>630.8</ele>
        <time>2018-09-23T08:21:23Z</time>
      </trkpt>
      <trkpt lat="43.94707" lon="6.23308">
        <ele>631.1</ele>
        <time>2018-09-23T08:21:28Z</time>
      </trkpt>
      <trkpt lat="43.94704" lon="6.2332">
        <ele>631.8</ele>
        <time>2018-09-23T08:21:38Z</time>
      </trkpt>
      <trkpt lat="43.94707" lon="6.23334">
        <ele>632.3</ele>
        <time>2018-09-23T08:22:01Z</time>
      </trkpt>
      <trkpt lat="43.94716" lon="6.2334">
        <ele>631.6</ele>
        <time>2018-09-23T08:22:17Z</time>
      </trkpt>
      <trkpt lat="43.94725" lon="6.23336">
        <ele>631.3</ele>
        <time>2018-09-23T08:22:23Z</time>
      </trkpt>
      <trkpt lat="43.94736" lon="6.23337">
        <ele>631</ele>
        <time>2018-09-23T08:22:29Z</time>
      </trkpt>
      <trkpt lat="43.94725" lon="6.23347">
        <ele>630.8</ele>
        <time>2018-09-23T08:22:40Z</time>
      </trkpt>
      <trkpt lat="43.94716" lon="6.23348">
        <ele>630.8</ele>
        <time>2018-09-23T08:22:42Z</time>
      </trkpt>
      <trkpt lat="43.94702" lon="6.23345">
        <ele>630.7</ele>
        <time>2018-09-23T08:22:49Z</time>
      </trkpt>
      <trkpt lat="43.94699" lon="6.23326">
        <ele>630</ele>
        <time>2018-09-23T08:22:59Z</time>
      </trkpt>
      <trkpt lat="43.94698" lon="6.2334">
        <ele>630.7</ele>
        <time>2018-09-23T08:23:07Z</time>
      </trkpt>
      <trkpt lat="43.94706" lon="6.23331">
        <ele>633.6</ele>
        <time>2018-09-23T08:23:37Z</time>
      </trkpt>
      <trkpt lat="43.94706" lon="6.23319">
        <ele>634.3</ele>
        <time>2018-09-23T08:23:43Z</time>
      </trkpt>
      <trkpt lat="43.94715" lon="6.23325">
        <ele>635.7</ele>
        <time>2018-09-23T08:23:53Z</time>
      </trkpt>
      <trkpt lat="43.94728" lon="6.23336">
        <ele>638</ele>
        <time>2018-09-23T08:24:14Z</time>
      </trkpt>
      <trkpt lat="43.9473" lon="6.23349">
        <ele>641.9</ele>
        <time>2018-09-23T08:24:45Z</time>
      </trkpt>
      <trkpt lat="43.94727" lon="6.23361">
        <ele>643.6</ele>
        <time>2018-09-23T08:24:58Z</time>
      </trkpt>
      <trkpt lat="43.94724" lon="6.23373">
        <ele>652.5</ele>
        <time>2018-09-23T08:26:25Z</time>
      </trkpt>
      <trkpt lat="43.94729" lon="6.23384">
        <ele>653.5</ele>
        <time>2018-09-23T08:26:34Z</time>
      </trkpt>
      <trkpt lat="43.94734" lon="6.23396">
        <ele>658.2</ele>
        <time>2018-09-23T08:27:10Z</time>
      </trkpt>
      <trkpt lat="43.94733" lon="6.23409">
        <ele>663.9</ele>
        <time>2018-09-23T08:27:56Z</time>
      </trkpt>
      <trkpt lat="43.94728" lon="6.2342">
        <ele>667.9</ele>
        <time>2018-09-23T08:28:38Z</time>
      </trkpt>
      <trkpt lat="43.94728" lon="6.23433">
        <ele>671.2</ele>
        <time>2018-09-23T08:29:14Z</time>
      </trkpt>
      <trkpt lat="43.94731" lon="6.23445">
        <ele>675.3</ele>
        <time>2018-09-23T08:30:24Z</time>
      </trkpt>
      <trkpt lat="43.9474" lon="6.2345">
        <ele>675.7</ele>
        <time>2018-09-23T08:30:33Z</time>
      </trkpt>
      <trkpt lat="43.94746" lon="6.23461">
        <ele>677.1</ele>
        <time>2018-09-23T08:30:50Z</time>
      </trkpt>
      <trkpt lat="43.94739" lon="6.23471">
        <ele>680.1</ele>
        <time>2018-09-23T08:31:17Z</time>
      </trkpt>
      <trkpt lat="43.94738" lon="6.23484">
        <ele>682.2</ele>
        <time>2018-09-23T08:31:35Z</time>
      </trkpt>
      <trkpt lat="43.94744" lon="6.23494">
        <ele>685.8</ele>
        <time>2018-09-23T08:32:01Z</time>
      </trkpt>
      <trkpt lat="43.94746" lon="6.23507">
        <ele>689.5</ele>
        <time>2018-09-23T08:32:30Z</time>
      </trkpt>
      <trkpt lat="43.94748" lon="6.23519">
        <ele>692.9</ele>
        <time>2018-09-23T08:33:01Z</time>
      </trkpt>
      <trkpt lat="43.94753" lon="6.2353">
        <ele>694.9</ele>
        <time>2018-09-23T08:36:08Z</time>
      </trkpt>
      <trkpt lat="43.94755" lon="6.23543">
        <ele>694.9</ele>
        <time>2018-09-23T08:36:19Z</time>
      </trkpt>
      <trkpt lat="43.94757" lon="6.23556">
        <ele>695</ele>
        <time>2018-09-23T08:36:29Z</time>
      </trkpt>
      <trkpt lat="43.94756" lon="6.23569">
        <ele>695.7</ele>
        <time>2018-09-23T08:36:44Z</time>
      </trkpt>
      <trkpt lat="43.94754" lon="6.23585">
        <ele>697.7</ele>
        <time>2018-09-23T08:37:05Z</time>
      </trkpt>
      <trkpt lat="43.94751" lon="6.23597">
        <ele>700</ele>
        <time>2018-09-23T08:37:37Z</time>
      </trkpt>
      <trkpt lat="43.94752" lon="6.2361">
        <ele>700.2</ele>
        <time>2018-09-23T08:37:49Z</time>
      </trkpt>
      <trkpt lat="43.94753" lon="6.23623">
        <ele>700.4</ele>
        <time>2018-09-23T08:38:07Z</time>
      </trkpt>
      <trkpt lat="43.94755" lon="6.23636">
        <ele>700.6</ele>
        <time>2018-09-23T08:38:18Z</time>
      </trkpt>
      <trkpt lat="43.94755" lon="6.2365">
        <ele>700.9</ele>
        <time>2018-09-23T08:38:34Z</time>
      </trkpt>
      <trkpt lat="43.94765" lon="6.23677">
        <ele>700</ele>
        <time>2018-09-23T08:39:29Z</time>
      </trkpt>
      <trkpt lat="43.9477" lon="6.23689">
        <ele>699</ele>
        <time>2018-09-23T08:39:37Z</time>
      </trkpt>
      <trkpt lat="43.94776" lon="6.23699">
        <ele>697.4</ele>
        <time>2018-09-23T08:39:50Z</time>
      </trkpt>
      <trkpt lat="43.94781" lon="6.23711">
        <ele>694.1</ele>
        <time>2018-09-23T08:40:17Z</time>
      </trkpt>
      <trkpt lat="43.94782" lon="6.23724">
        <ele>690.6</ele>
        <time>2018-09-23T08:40:47Z</time>
      </trkpt>
      <trkpt lat="43.94785" lon="6.23735">
        <ele>687.7</ele>
        <time>2018-09-23T08:41:12Z</time>
      </trkpt>
      <trkpt lat="43.94785" lon="6.23753">
        <ele>684</ele>
        <time>2018-09-23T08:41:46Z</time>
      </trkpt>
      <trkpt lat="43.94787" lon="6.23771">
        <ele>679</ele>
        <time>2018-09-23T08:42:51Z</time>
      </trkpt>
      <trkpt lat="43.94791" lon="6.23787">
        <ele>676.6</ele>
        <time>2018-09-23T08:43:26Z</time>
      </trkpt>
      <trkpt lat="43.9479" lon="6.238">
        <ele>673.7</ele>
        <time>2018-09-23T08:43:54Z</time>
      </trkpt>
      <trkpt lat="43.94797" lon="6.23809">
        <ele>672.1</ele>
        <time>2018-09-23T08:44:08Z</time>
      </trkpt>
      <trkpt lat="43.94801" lon="6.23821">
        <ele>669.8</ele>
        <time>2018-09-23T08:44:25Z</time>
      </trkpt>
      <trkpt lat="43.94805" lon="6.23833">
        <ele>667.9</ele>
        <time>2018-09-23T08:44:40Z</time>
      </trkpt>
      <trkpt lat="43.94807" lon="6.23845">
        <ele>665.3</ele>
        <time>2018-09-23T08:44:58Z</time>
      </trkpt>
      <trkpt lat="43.94815" lon="6.23851">
        <ele>663.7</ele>
        <time>2018-09-23T08:45:10Z</time>
      </trkpt>
      <trkpt lat="43.94813" lon="6.23864">
        <ele>658.6</ele>
        <time>2018-09-23T08:46:10Z</time>
      </trkpt>
      <trkpt lat="43.94821" lon="6.2387">
        <ele>657.4</ele>
        <time>2018-09-23T08:46:22Z</time>
      </trkpt>
      <trkpt lat="43.94825" lon="6.23882">
        <ele>656.4</ele>
        <time>2018-09-23T08:46:58Z</time>
      </trkpt>
      <trkpt lat="43.94828" lon="6.23894">
        <ele>656.6</ele>
        <time>2018-09-23T08:47:14Z</time>
      </trkpt>
      <trkpt lat="43.94825" lon="6.23907">
        <ele>656.7</ele>
        <time>2018-09-23T08:47:28Z</time>
      </trkpt>
      <trkpt lat="43.94813" lon="6.23916">
        <ele>657.3</ele>
        <time>2018-09-23T08:48:58Z</time>
      </trkpt>
      <trkpt lat="43.94807" lon="6.23904">
        <ele>656.1</ele>
        <time>2018-09-23T08:49:34Z</time>
      </trkpt>
      <trkpt lat="43.94802" lon="6.23915">
        <ele>655.5</ele>
        <time>2018-09-23T08:50:01Z</time>
      </trkpt>
      <trkpt lat="43.94794" lon="6.23908">
        <ele>655.9</ele>
        <time>2018-09-23T08:50:23Z</time>
      </trkpt>
      <trkpt lat="43.94788" lon="6.23898">
        <ele>656.7</ele>
        <time>2018-09-23T08:50:34Z</time>
      </trkpt>
      <trkpt lat="43.9478" lon="6.23891">
        <ele>657.7</ele>
        <time>2018-09-23T08:50:43Z</time>
      </trkpt>
      <trkpt lat="43.94772" lon="6.23883">
        <ele>658.9</ele>
        <time>2018-09-23T08:50:53Z</time>
      </trkpt>
      <trkpt lat="43.94764" lon="6.23876">
        <ele>659.9</ele>
        <time>2018-09-23T08:51:02Z</time>
      </trkpt>
      <trkpt lat="43.94756" lon="6.23869">
        <ele>661.4</ele>
        <time>2018-09-23T08:51:13Z</time>
      </trkpt>
      <trkpt lat="43.94746" lon="6.23866">
        <ele>662.6</ele>
        <time>2018-09-23T08:51:22Z</time>
      </trkpt>
      <trkpt lat="43.94737" lon="6.23866">
        <ele>664.4</ele>
        <time>2018-09-23T08:51:37Z</time>
      </trkpt>
      <trkpt lat="43.94728" lon="6.23861">
        <ele>666.2</ele>
        <time>2018-09-23T08:51:50Z</time>
      </trkpt>
      <trkpt lat="43.94719" lon="6.23857">
        <ele>667.9</ele>
        <time>2018-09-23T08:52:04Z</time>
      </trkpt>
      <trkpt lat="43.94711" lon="6.2385">
        <ele>669.4</ele>
        <time>2018-09-23T08:52:17Z</time>
      </trkpt>
      <trkpt lat="43.94703" lon="6.23843">
        <ele>670.3</ele>
        <time>2018-09-23T08:52:26Z</time>
      </trkpt>
      <trkpt lat="43.94696" lon="6.23835">
        <ele>671.6</ele>
        <time>2018-09-23T08:52:37Z</time>
      </trkpt>
      <trkpt lat="43.9469" lon="6.23825">
        <ele>672.8</ele>
        <time>2018-09-23T08:52:48Z</time>
      </trkpt>
      <trkpt lat="43.94684" lon="6.23815">
        <ele>674.3</ele>
        <time>2018-09-23T08:52:59Z</time>
      </trkpt>
      <trkpt lat="43.94679" lon="6.23804">
        <ele>676.1</ele>
        <time>2018-09-23T08:53:14Z</time>
      </trkpt>
      <trkpt lat="43.94677" lon="6.23791">
        <ele>678</ele>
        <time>2018-09-23T08:53:33Z</time>
      </trkpt>
      <trkpt lat="43.94673" lon="6.2378">
        <ele>679.3</ele>
        <time>2018-09-23T08:53:45Z</time>
      </trkpt>
      <trkpt lat="43.94665" lon="6.23773">
        <ele>681.2</ele>
        <time>2018-09-23T08:54:01Z</time>
      </trkpt>
      <trkpt lat="43.94654" lon="6.23768">
        <ele>682.9</ele>
        <time>2018-09-23T08:54:14Z</time>
      </trkpt>
      <trkpt lat="43.94644" lon="6.23761">
        <ele>683.3</ele>
        <time>2018-09-23T08:54:18Z</time>
      </trkpt>
      <trkpt lat="43.94639" lon="6.23749">
        <ele>684.3</ele>
        <time>2018-09-23T08:54:26Z</time>
      </trkpt>
      <trkpt lat="43.94649" lon="6.23738">
        <ele>686.2</ele>
        <time>2018-09-23T08:54:42Z</time>
      </trkpt>
      <trkpt lat="43.9465" lon="6.23721">
        <ele>693.6</ele>
        <time>2018-09-23T08:55:34Z</time>
      </trkpt>
      <trkpt lat="43.94653" lon="6.23706">
        <ele>694</ele>
        <time>2018-09-23T08:55:37Z</time>
      </trkpt>
      <trkpt lat="43.94647" lon="6.23688">
        <ele>694.3</ele>
        <time>2018-09-23T08:55:40Z</time>
      </trkpt>
      <trkpt lat="43.9465" lon="6.23676">
        <ele>695.9</ele>
        <time>2018-09-23T08:55:52Z</time>
      </trkpt>
      <trkpt lat="43.94653" lon="6.23663">
        <ele>697.3</ele>
        <time>2018-09-23T08:56:02Z</time>
      </trkpt>
      <trkpt lat="43.94648" lon="6.23652">
        <ele>698.2</ele>
        <time>2018-09-23T08:56:10Z</time>
      </trkpt>
      <trkpt lat="43.94652" lon="6.23639">
        <ele>699.8</ele>
        <time>2018-09-23T08:56:24Z</time>
      </trkpt>
      <trkpt lat="43.94652" lon="6.23626">
        <ele>701.6</ele>
        <time>2018-09-23T08:56:39Z</time>
      </trkpt>
      <trkpt lat="43.94643" lon="6.23629">
        <ele>703.5</ele>
        <time>2018-09-23T08:57:01Z</time>
      </trkpt>
      <trkpt lat="43.94637" lon="6.23639">
        <ele>704.7</ele>
        <time>2018-09-23T08:57:16Z</time>
      </trkpt>
      <trkpt lat="43.94631" lon="6.2365">
        <ele>706.7</ele>
        <time>2018-09-23T08:57:35Z</time>
      </trkpt>
      <trkpt lat="43.94622" lon="6.23656">
        <ele>708.3</ele>
        <time>2018-09-23T08:57:53Z</time>
      </trkpt>
      <trkpt lat="43.94614" lon="6.23661">
        <ele>709.7</ele>
        <time>2018-09-23T08:58:07Z</time>
      </trkpt>
      <trkpt lat="43.94605" lon="6.23666">
        <ele>711.5</ele>
        <time>2018-09-23T08:58:21Z</time>
      </trkpt>
      <trkpt lat="43.94596" lon="6.23669">
        <ele>713.3</ele>
        <time>2018-09-23T08:58:34Z</time>
      </trkpt>
      <trkpt lat="43.94589" lon="6.23677">
        <ele>714.7</ele>
        <time>2018-09-23T08:58:46Z</time>
      </trkpt>
      <trkpt lat="43.94582" lon="6.23686">
        <ele>716.1</ele>
        <time>2018-09-23T08:58:57Z</time>
      </trkpt>
      <trkpt lat="43.94581" lon="6.23699">
        <ele>717.1</ele>
        <time>2018-09-23T08:59:06Z</time>
      </trkpt>
      <trkpt lat="43.9458" lon="6.23712">
        <ele>718</ele>
        <time>2018-09-23T08:59:13Z</time>
      </trkpt>
      <trkpt lat="43.94582" lon="6.23725">
        <ele>719.2</ele>
        <time>2018-09-23T08:59:22Z</time>
      </trkpt>
      <trkpt lat="43.94573" lon="6.23724">
        <ele>720.8</ele>
        <time>2018-09-23T08:59:34Z</time>
      </trkpt>
      <trkpt lat="43.94564" lon="6.23727">
        <ele>722.3</ele>
        <time>2018-09-23T08:59:46Z</time>
      </trkpt>
      <trkpt lat="43.94556" lon="6.23735">
        <ele>724</ele>
        <time>2018-09-23T09:00:00Z</time>
      </trkpt>
      <trkpt lat="43.94548" lon="6.23743">
        <ele>725.4</ele>
        <time>2018-09-23T09:00:12Z</time>
      </trkpt>
      <trkpt lat="43.94541" lon="6.23752">
        <ele>726.7</ele>
        <time>2018-09-23T09:00:24Z</time>
      </trkpt>
      <trkpt lat="43.94533" lon="6.23759">
        <ele>728</ele>
        <time>2018-09-23T09:00:35Z</time>
      </trkpt>
      <trkpt lat="43.94526" lon="6.23766">
        <ele>729.6</ele>
        <time>2018-09-23T09:00:47Z</time>
      </trkpt>
      <trkpt lat="43.94518" lon="6.23772">
        <ele>731.2</ele>
        <time>2018-09-23T09:01:00Z</time>
      </trkpt>
      <trkpt lat="43.94509" lon="6.23774">
        <ele>732.5</ele>
        <time>2018-09-23T09:01:10Z</time>
      </trkpt>
      <trkpt lat="43.94501" lon="6.2378">
        <ele>734</ele>
        <time>2018-09-23T09:01:21Z</time>
      </trkpt>
      <trkpt lat="43.94495" lon="6.2379">
        <ele>735.2</ele>
        <time>2018-09-23T09:01:30Z</time>
      </trkpt>
      <trkpt lat="43.94487" lon="6.23797">
        <ele>736.6</ele>
        <time>2018-09-23T09:01:40Z</time>
      </trkpt>
      <trkpt lat="43.94478" lon="6.23801">
        <ele>737.9</ele>
        <time>2018-09-23T09:01:51Z</time>
      </trkpt>
      <trkpt lat="43.94469" lon="6.23806">
        <ele>739.6</ele>
        <time>2018-09-23T09:02:06Z</time>
      </trkpt>
      <trkpt lat="43.9446" lon="6.23805">
        <ele>740.9</ele>
        <time>2018-09-23T09:02:19Z</time>
      </trkpt>
      <trkpt lat="43.9445" lon="6.23805">
        <ele>742.4</ele>
        <time>2018-09-23T09:02:36Z</time>
      </trkpt>
      <trkpt lat="43.94441" lon="6.23804">
        <ele>743.2</ele>
        <time>2018-09-23T09:02:48Z</time>
      </trkpt>
      <trkpt lat="43.94432" lon="6.23804">
        <ele>744.2</ele>
        <time>2018-09-23T09:03:03Z</time>
      </trkpt>
      <trkpt lat="43.94423" lon="6.23802">
        <ele>745.2</ele>
        <time>2018-09-23T09:03:15Z</time>
      </trkpt>
      <trkpt lat="43.94416" lon="6.23811">
        <ele>746.1</ele>
        <time>2018-09-23T09:03:27Z</time>
      </trkpt>
      <trkpt lat="43.94408" lon="6.2382">
        <ele>746.7</ele>
        <time>2018-09-23T09:03:36Z</time>
      </trkpt>
      <trkpt lat="43.94399" lon="6.2382">
        <ele>747.2</ele>
        <time>2018-09-23T09:03:46Z</time>
      </trkpt>
      <trkpt lat="43.94389" lon="6.23821">
        <ele>748.4</ele>
        <time>2018-09-23T09:05:10Z</time>
      </trkpt>
      <trkpt lat="43.94381" lon="6.23828">
        <ele>748.5</ele>
        <time>2018-09-23T09:05:18Z</time>
      </trkpt>
      <trkpt lat="43.94379" lon="6.2384">
        <ele>748.6</ele>
        <time>2018-09-23T09:05:28Z</time>
      </trkpt>
      <trkpt lat="43.94374" lon="6.23851">
        <ele>749.2</ele>
        <time>2018-09-23T09:05:52Z</time>
      </trkpt>
      <trkpt lat="43.94364" lon="6.23853">
        <ele>749.7</ele>
        <time>2018-09-23T09:06:01Z</time>
      </trkpt>
      <trkpt lat="43.94355" lon="6.23851">
        <ele>750.8</ele>
        <time>2018-09-23T09:06:14Z</time>
      </trkpt>
      <trkpt lat="43.94348" lon="6.23844">
        <ele>752.2</ele>
        <time>2018-09-23T09:06:28Z</time>
      </trkpt>
      <trkpt lat="43.9434" lon="6.23851">
        <ele>754</ele>
        <time>2018-09-23T09:06:47Z</time>
      </trkpt>
      <trkpt lat="43.94332" lon="6.23858">
        <ele>755.1</ele>
        <time>2018-09-23T09:06:59Z</time>
      </trkpt>
      <trkpt lat="43.94333" lon="6.23871">
        <ele>755.9</ele>
        <time>2018-09-23T09:07:08Z</time>
      </trkpt>
      <trkpt lat="43.9434" lon="6.2388">
        <ele>756.4</ele>
        <time>2018-09-23T09:07:20Z</time>
      </trkpt>
      <trkpt lat="43.94341" lon="6.23893">
        <ele>756.9</ele>
        <time>2018-09-23T09:07:37Z</time>
      </trkpt>
      <trkpt lat="43.9435" lon="6.23906">
        <ele>758</ele>
        <time>2018-09-23T09:11:05Z</time>
      </trkpt>
      <trkpt lat="43.94354" lon="6.23919">
        <ele>758.1</ele>
        <time>2018-09-23T09:11:20Z</time>
      </trkpt>
      <trkpt lat="43.94363" lon="6.23919">
        <ele>758</ele>
        <time>2018-09-23T09:11:35Z</time>
      </trkpt>
      <trkpt lat="43.94368" lon="6.2393">
        <ele>758</ele>
        <time>2018-09-23T09:11:53Z</time>
      </trkpt>
      <trkpt lat="43.94371" lon="6.23943">
        <ele>758.1</ele>
        <time>2018-09-23T09:12:05Z</time>
      </trkpt>
      <trkpt lat="43.94369" lon="6.23956">
        <ele>758.5</ele>
        <time>2018-09-23T09:12:11Z</time>
      </trkpt>
      <trkpt lat="43.94368" lon="6.2397">
        <ele>759.1</ele>
        <time>2018-09-23T09:12:18Z</time>
      </trkpt>
      <trkpt lat="43.94367" lon="6.23983">
        <ele>759.9</ele>
        <time>2018-09-23T09:12:26Z</time>
      </trkpt>
      <trkpt lat="43.94362" lon="6.23993">
        <ele>761.7</ele>
        <time>2018-09-23T09:12:40Z</time>
      </trkpt>
      <trkpt lat="43.94357" lon="6.24004">
        <ele>763.2</ele>
        <time>2018-09-23T09:12:53Z</time>
      </trkpt>
      <trkpt lat="43.94349" lon="6.24012">
        <ele>764.8</ele>
        <time>2018-09-23T09:13:06Z</time>
      </trkpt>
      <trkpt lat="43.94342" lon="6.24021">
        <ele>767.2</ele>
        <time>2018-09-23T09:13:26Z</time>
      </trkpt>
      <trkpt lat="43.94339" lon="6.24033">
        <ele>768.3</ele>
        <time>2018-09-23T09:13:37Z</time>
      </trkpt>
      <trkpt lat="43.94334" lon="6.24045">
        <ele>769.3</ele>
        <time>2018-09-23T09:13:47Z</time>
      </trkpt>
      <trkpt lat="43.94329" lon="6.24055">
        <ele>770.6</ele>
        <time>2018-09-23T09:13:58Z</time>
      </trkpt>
      <trkpt lat="43.94324" lon="6.24069">
        <ele>772.2</ele>
        <time>2018-09-23T09:14:13Z</time>
      </trkpt>
      <trkpt lat="43.94318" lon="6.24079">
        <ele>772.7</ele>
        <time>2018-09-23T09:14:18Z</time>
      </trkpt>
      <trkpt lat="43.94312" lon="6.24088">
        <ele>773.8</ele>
        <time>2018-09-23T09:14:28Z</time>
      </trkpt>
      <trkpt lat="43.94302" lon="6.24092">
        <ele>775</ele>
        <time>2018-09-23T09:14:40Z</time>
      </trkpt>
      <trkpt lat="43.94293" lon="6.24098">
        <ele>776.1</ele>
        <time>2018-09-23T09:14:51Z</time>
      </trkpt>
      <trkpt lat="43.94284" lon="6.24104">
        <ele>776.9</ele>
        <time>2018-09-23T09:15:00Z</time>
      </trkpt>
      <trkpt lat="43.94275" lon="6.24108">
        <ele>777.7</ele>
        <time>2018-09-23T09:15:09Z</time>
      </trkpt>
      <trkpt lat="43.94266" lon="6.24111">
        <ele>778.9</ele>
        <time>2018-09-23T09:15:20Z</time>
      </trkpt>
      <trkpt lat="43.94258" lon="6.24114">
        <ele>780.2</ele>
        <time>2018-09-23T09:15:34Z</time>
      </trkpt>
      <trkpt lat="43.94248" lon="6.24115">
        <ele>781.3</ele>
        <time>2018-09-23T09:15:44Z</time>
      </trkpt>
      <trkpt lat="43.94239" lon="6.24117">
        <ele>782.2</ele>
        <time>2018-09-23T09:15:54Z</time>
      </trkpt>
      <trkpt lat="43.94231" lon="6.2412">
        <ele>783</ele>
        <time>2018-09-23T09:16:03Z</time>
      </trkpt>
      <trkpt lat="43.94222" lon="6.24124">
        <ele>784.2</ele>
        <time>2018-09-23T09:16:16Z</time>
      </trkpt>
      <trkpt lat="43.94213" lon="6.24124">
        <ele>785.2</ele>
        <time>2018-09-23T09:16:28Z</time>
      </trkpt>
      <trkpt lat="43.94204" lon="6.24123">
        <ele>786</ele>
        <time>2018-09-23T09:16:40Z</time>
      </trkpt>
      <trkpt lat="43.94195" lon="6.24126">
        <ele>786.8</ele>
        <time>2018-09-23T09:16:52Z</time>
      </trkpt>
      <trkpt lat="43.94185" lon="6.24124">
        <ele>787.6</ele>
        <time>2018-09-23T09:17:04Z</time>
      </trkpt>
      <trkpt lat="43.94176" lon="6.24122">
        <ele>788.6</ele>
        <time>2018-09-23T09:17:16Z</time>
      </trkpt>
      <trkpt lat="43.94185" lon="6.24126">
        <ele>794.3</ele>
        <time>2018-09-23T09:19:54Z</time>
      </trkpt>
      <trkpt lat="43.94194" lon="6.2413">
        <ele>795.1</ele>
        <time>2018-09-23T09:20:01Z</time>
      </trkpt>
      <trkpt lat="43.94203" lon="6.24136">
        <ele>796.1</ele>
        <time>2018-09-23T09:20:10Z</time>
      </trkpt>
      <trkpt lat="43.94214" lon="6.24144">
        <ele>799.2</ele>
        <time>2018-09-23T09:21:13Z</time>
      </trkpt>
      <trkpt lat="43.94223" lon="6.24148">
        <ele>800.1</ele>
        <time>2018-09-23T09:21:23Z</time>
      </trkpt>
      <trkpt lat="43.94231" lon="6.24154">
        <ele>800.7</ele>
        <time>2018-09-23T09:21:30Z</time>
      </trkpt>
      <trkpt lat="43.9424" lon="6.24159">
        <ele>801.7</ele>
        <time>2018-09-23T09:21:40Z</time>
      </trkpt>
      <trkpt lat="43.94249" lon="6.24158">
        <ele>803.5</ele>
        <time>2018-09-23T09:21:57Z</time>
      </trkpt>
      <trkpt lat="43.94259" lon="6.24159">
        <ele>805.1</ele>
        <time>2018-09-23T09:22:11Z</time>
      </trkpt>
      <trkpt lat="43.94267" lon="6.24167">
        <ele>806.5</ele>
        <time>2018-09-23T09:22:22Z</time>
      </trkpt>
      <trkpt lat="43.94276" lon="6.24168">
        <ele>808.7</ele>
        <time>2018-09-23T09:22:38Z</time>
      </trkpt>
      <trkpt lat="43.94285" lon="6.24168">
        <ele>810.5</ele>
        <time>2018-09-23T09:22:54Z</time>
      </trkpt>
      <trkpt lat="43.94294" lon="6.24168">
        <ele>812.1</ele>
        <time>2018-09-23T09:23:09Z</time>
      </trkpt>
      <trkpt lat="43.94303" lon="6.24169">
        <ele>814.2</ele>
        <time>2018-09-23T09:23:26Z</time>
      </trkpt>
      <trkpt lat="43.94312" lon="6.24172">
        <ele>816</ele>
        <time>2018-09-23T09:23:42Z</time>
      </trkpt>
      <trkpt lat="43.94325" lon="6.24172">
        <ele>818.2</ele>
        <time>2018-09-23T09:24:01Z</time>
      </trkpt>
      <trkpt lat="43.94334" lon="6.24169">
        <ele>819.8</ele>
        <time>2018-09-23T09:24:15Z</time>
      </trkpt>
      <trkpt lat="43.94343" lon="6.24168">
        <ele>821.4</ele>
        <time>2018-09-23T09:24:27Z</time>
      </trkpt>
      <trkpt lat="43.94353" lon="6.2417">
        <ele>822.9</ele>
        <time>2018-09-23T09:24:39Z</time>
      </trkpt>
      <trkpt lat="43.94363" lon="6.24168">
        <ele>824.8</ele>
        <time>2018-09-23T09:24:53Z</time>
      </trkpt>
      <trkpt lat="43.94372" lon="6.24165">
        <ele>826.4</ele>
        <time>2018-09-23T09:25:05Z</time>
      </trkpt>
      <trkpt lat="43.94381" lon="6.24161">
        <ele>828</ele>
        <time>2018-09-23T09:25:18Z</time>
      </trkpt>
      <trkpt lat="43.9439" lon="6.2416">
        <ele>829.5</ele>
        <time>2018-09-23T09:25:30Z</time>
      </trkpt>
      <trkpt lat="43.94399" lon="6.2416">
        <ele>830.7</ele>
        <time>2018-09-23T09:25:40Z</time>
      </trkpt>
      <trkpt lat="43.94409" lon="6.24158">
        <ele>832.6</ele>
        <time>2018-09-23T09:25:56Z</time>
      </trkpt>
      <trkpt lat="43.94416" lon="6.24151">
        <ele>834.6</ele>
        <time>2018-09-23T09:26:09Z</time>
      </trkpt>
      <trkpt lat="43.94425" lon="6.24147">
        <ele>836.1</ele>
        <time>2018-09-23T09:26:21Z</time>
      </trkpt>
      <trkpt lat="43.94433" lon="6.24142">
        <ele>837.4</ele>
        <time>2018-09-23T09:26:32Z</time>
      </trkpt>
      <trkpt lat="43.9444" lon="6.24132">
        <ele>838.7</ele>
        <time>2018-09-23T09:26:43Z</time>
      </trkpt>
      <trkpt lat="43.94447" lon="6.24125">
        <ele>840.2</ele>
        <time>2018-09-23T09:26:55Z</time>
      </trkpt>
      <trkpt lat="43.94457" lon="6.24122">
        <ele>841.5</ele>
        <time>2018-09-23T09:27:06Z</time>
      </trkpt>
      <trkpt lat="43.94466" lon="6.24119">
        <ele>842.9</ele>
        <time>2018-09-23T09:27:18Z</time>
      </trkpt>
      <trkpt lat="43.94475" lon="6.24116">
        <ele>844.4</ele>
        <time>2018-09-23T09:27:32Z</time>
      </trkpt>
      <trkpt lat="43.94486" lon="6.24117">
        <ele>845.2</ele>
        <time>2018-09-23T09:27:40Z</time>
      </trkpt>
      <trkpt lat="43.94495" lon="6.24113">
        <ele>845.9</ele>
        <time>2018-09-23T09:27:51Z</time>
      </trkpt>
      <trkpt lat="43.94503" lon="6.24108">
        <ele>846.8</ele>
        <time>2018-09-23T09:28:04Z</time>
      </trkpt>
      <trkpt lat="43.94513" lon="6.24105">
        <ele>847.1</ele>
        <time>2018-09-23T09:28:11Z</time>
      </trkpt>
      <trkpt lat="43.9452" lon="6.24097">
        <ele>848.3</ele>
        <time>2018-09-23T09:29:09Z</time>
      </trkpt>
      <trkpt lat="43.94522" lon="6.24081">
        <ele>848.4</ele>
        <time>2018-09-23T09:29:27Z</time>
      </trkpt>
      <trkpt lat="43.94531" lon="6.24086">
        <ele>848.8</ele>
        <time>2018-09-23T09:29:38Z</time>
      </trkpt>
      <trkpt lat="43.94542" lon="6.24086">
        <ele>849.8</ele>
        <time>2018-09-23T09:29:59Z</time>
      </trkpt>
      <trkpt lat="43.94538" lon="6.24074">
        <ele>853.4</ele>
        <time>2018-09-23T09:30:53Z</time>
      </trkpt>
      <trkpt lat="43.94532" lon="6.24064">
        <ele>854.6</ele>
        <time>2018-09-23T09:31:01Z</time>
      </trkpt>
      <trkpt lat="43.9453" lon="6.24052">
        <ele>856.9</ele>
        <time>2018-09-23T09:31:19Z</time>
      </trkpt>
      <trkpt lat="43.94532" lon="6.24039">
        <ele>859.5</ele>
        <time>2018-09-23T09:31:42Z</time>
      </trkpt>
      <trkpt lat="43.94523" lon="6.24034">
        <ele>862</ele>
        <time>2018-09-23T09:32:08Z</time>
      </trkpt>
      <trkpt lat="43.94527" lon="6.24022">
        <ele>868.1</ele>
        <time>2018-09-23T09:33:26Z</time>
      </trkpt>
      <trkpt lat="43.94525" lon="6.2401">
        <ele>871.5</ele>
        <time>2018-09-23T09:34:01Z</time>
      </trkpt>
      <trkpt lat="43.94518" lon="6.24001">
        <ele>873.6</ele>
        <time>2018-09-23T09:34:21Z</time>
      </trkpt>
      <trkpt lat="43.94518" lon="6.23988">
        <ele>876</ele>
        <time>2018-09-23T09:34:44Z</time>
      </trkpt>
      <trkpt lat="43.94517" lon="6.23975">
        <ele>878.1</ele>
        <time>2018-09-23T09:35:00Z</time>
      </trkpt>
      <trkpt lat="43.94508" lon="6.23973">
        <ele>881</ele>
        <time>2018-09-23T09:35:24Z</time>
      </trkpt>
      <trkpt lat="43.94505" lon="6.23961">
        <ele>883.4</ele>
        <time>2018-09-23T09:35:45Z</time>
      </trkpt>
      <trkpt lat="43.94511" lon="6.23951">
        <ele>885.9</ele>
        <time>2018-09-23T09:36:25Z</time>
      </trkpt>
      <trkpt lat="43.94518" lon="6.23942">
        <ele>886.8</ele>
        <time>2018-09-23T09:36:41Z</time>
      </trkpt>
      <trkpt lat="43.94525" lon="6.2395">
        <ele>887.5</ele>
        <time>2018-09-23T09:38:15Z</time>
      </trkpt>
      <trkpt lat="43.94535" lon="6.23952">
        <ele>890.7</ele>
        <time>2018-09-23T09:39:16Z</time>
      </trkpt>
      <trkpt lat="43.94532" lon="6.23964">
        <ele>892.7</ele>
        <time>2018-09-23T09:39:38Z</time>
      </trkpt>
      <trkpt lat="43.94532" lon="6.23949">
        <ele>890.6</ele>
        <time>2018-09-23T09:43:16Z</time>
      </trkpt>
      <trkpt lat="43.94523" lon="6.2395">
        <ele>887.9</ele>
        <time>2018-09-23T09:43:40Z</time>
      </trkpt>
      <trkpt lat="43.94514" lon="6.23949">
        <ele>885.6</ele>
        <time>2018-09-23T09:45:30Z</time>
      </trkpt>
      <trkpt lat="43.94505" lon="6.23951">
        <ele>883.5</ele>
        <time>2018-09-23T09:46:18Z</time>
      </trkpt>
      <trkpt lat="43.94506" lon="6.23966">
        <ele>881.3</ele>
        <time>2018-09-23T09:46:42Z</time>
      </trkpt>
      <trkpt lat="43.94512" lon="6.23976">
        <ele>879.3</ele>
        <time>2018-09-23T09:47:00Z</time>
      </trkpt>
      <trkpt lat="43.94515" lon="6.23995">
        <ele>873</ele>
        <time>2018-09-23T09:47:55Z</time>
      </trkpt>
      <trkpt lat="43.94518" lon="6.24007">
        <ele>871.2</ele>
        <time>2018-09-23T09:48:16Z</time>
      </trkpt>
      <trkpt lat="43.94521" lon="6.24019">
        <ele>868</ele>
        <time>2018-09-23T09:48:38Z</time>
      </trkpt>
      <trkpt lat="43.9452" lon="6.24032">
        <ele>861.8</ele>
        <time>2018-09-23T09:49:35Z</time>
      </trkpt>
      <trkpt lat="43.94527" lon="6.2404">
        <ele>859.7</ele>
        <time>2018-09-23T09:49:52Z</time>
      </trkpt>
      <trkpt lat="43.9453" lon="6.24055">
        <ele>855</ele>
        <time>2018-09-23T09:50:24Z</time>
      </trkpt>
      <trkpt lat="43.94535" lon="6.24066">
        <ele>853.4</ele>
        <time>2018-09-23T09:50:34Z</time>
      </trkpt>
      <trkpt lat="43.9454" lon="6.24077">
        <ele>852.1</ele>
        <time>2018-09-23T09:50:43Z</time>
      </trkpt>
      <trkpt lat="43.9454" lon="6.24089">
        <ele>846.9</ele>
        <time>2018-09-23T09:51:16Z</time>
      </trkpt>
      <trkpt lat="43.94531" lon="6.2409">
        <ele>846.1</ele>
        <time>2018-09-23T09:51:23Z</time>
      </trkpt>
      <trkpt lat="43.94522" lon="6.24096">
        <ele>844.8</ele>
        <time>2018-09-23T09:51:36Z</time>
      </trkpt>
      <trkpt lat="43.94508" lon="6.2411">
        <ele>841</ele>
        <time>2018-09-23T09:53:35Z</time>
      </trkpt>
      <trkpt lat="43.94501" lon="6.24118">
        <ele>841.6</ele>
        <time>2018-09-23T09:53:45Z</time>
      </trkpt>
      <trkpt lat="43.94493" lon="6.24124">
        <ele>841.1</ele>
        <time>2018-09-23T09:53:58Z</time>
      </trkpt>
      <trkpt lat="43.94483" lon="6.24122">
        <ele>840.3</ele>
        <time>2018-09-23T09:54:21Z</time>
      </trkpt>
      <trkpt lat="43.94474" lon="6.24125">
        <ele>839.9</ele>
        <time>2018-09-23T09:54:36Z</time>
      </trkpt>
      <trkpt lat="43.94466" lon="6.24133">
        <ele>839</ele>
        <time>2018-09-23T09:54:47Z</time>
      </trkpt>
      <trkpt lat="43.94458" lon="6.2414">
        <ele>837.6</ele>
        <time>2018-09-23T09:55:02Z</time>
      </trkpt>
      <trkpt lat="43.94449" lon="6.24138">
        <ele>836.3</ele>
        <time>2018-09-23T09:55:16Z</time>
      </trkpt>
      <trkpt lat="43.94443" lon="6.24149">
        <ele>834.5</ele>
        <time>2018-09-23T09:55:33Z</time>
      </trkpt>
      <trkpt lat="43.94434" lon="6.24155">
        <ele>833.4</ele>
        <time>2018-09-23T09:55:43Z</time>
      </trkpt>
      <trkpt lat="43.94425" lon="6.24158">
        <ele>831.8</ele>
        <time>2018-09-23T09:55:54Z</time>
      </trkpt>
      <trkpt lat="43.94416" lon="6.24159">
        <ele>830.3</ele>
        <time>2018-09-23T09:56:05Z</time>
      </trkpt>
      <trkpt lat="43.94406" lon="6.24161">
        <ele>828.7</ele>
        <time>2018-09-23T09:56:18Z</time>
      </trkpt>
      <trkpt lat="43.94397" lon="6.24159">
        <ele>827.3</ele>
        <time>2018-09-23T09:56:29Z</time>
      </trkpt>
      <trkpt lat="43.94387" lon="6.24157">
        <ele>825.9</ele>
        <time>2018-09-23T09:56:39Z</time>
      </trkpt>
      <trkpt lat="43.94378" lon="6.24158">
        <ele>824.4</ele>
        <time>2018-09-23T09:56:51Z</time>
      </trkpt>
      <trkpt lat="43.94368" lon="6.24157">
        <ele>822.9</ele>
        <time>2018-09-23T09:57:02Z</time>
      </trkpt>
      <trkpt lat="43.94359" lon="6.24161">
        <ele>821.4</ele>
        <time>2018-09-23T09:57:13Z</time>
      </trkpt>
      <trkpt lat="43.9435" lon="6.24162">
        <ele>819.8</ele>
        <time>2018-09-23T09:57:23Z</time>
      </trkpt>
      <trkpt lat="43.94341" lon="6.2416">
        <ele>817.9</ele>
        <time>2018-09-23T09:57:36Z</time>
      </trkpt>
      <trkpt lat="43.94331" lon="6.2416">
        <ele>816.6</ele>
        <time>2018-09-23T09:57:45Z</time>
      </trkpt>
      <trkpt lat="43.94321" lon="6.24161">
        <ele>814.8</ele>
        <time>2018-09-23T09:57:58Z</time>
      </trkpt>
      <trkpt lat="43.94312" lon="6.24161">
        <ele>813.1</ele>
        <time>2018-09-23T09:58:10Z</time>
      </trkpt>
      <trkpt lat="43.94303" lon="6.24159">
        <ele>811.3</ele>
        <time>2018-09-23T09:58:22Z</time>
      </trkpt>
      <trkpt lat="43.94294" lon="6.24155">
        <ele>809.3</ele>
        <time>2018-09-23T09:58:36Z</time>
      </trkpt>
      <trkpt lat="43.94285" lon="6.24158">
        <ele>807.2</ele>
        <time>2018-09-23T09:58:51Z</time>
      </trkpt>
      <trkpt lat="43.94276" lon="6.24154">
        <ele>805.6</ele>
        <time>2018-09-23T09:59:03Z</time>
      </trkpt>
      <trkpt lat="43.94267" lon="6.24155">
        <ele>803.2</ele>
        <time>2018-09-23T09:59:21Z</time>
      </trkpt>
      <trkpt lat="43.94258" lon="6.24155">
        <ele>801.1</ele>
        <time>2018-09-23T09:59:36Z</time>
      </trkpt>
      <trkpt lat="43.94246" lon="6.24148">
        <ele>799.7</ele>
        <time>2018-09-23T09:59:46Z</time>
      </trkpt>
      <trkpt lat="43.94238" lon="6.24144">
        <ele>798.3</ele>
        <time>2018-09-23T09:59:57Z</time>
      </trkpt>
      <trkpt lat="43.94228" lon="6.24139">
        <ele>796.8</ele>
        <time>2018-09-23T10:00:09Z</time>
      </trkpt>
      <trkpt lat="43.94221" lon="6.24131">
        <ele>794.9</ele>
        <time>2018-09-23T10:00:23Z</time>
      </trkpt>
      <trkpt lat="43.94212" lon="6.24126">
        <ele>793.1</ele>
        <time>2018-09-23T10:00:35Z</time>
      </trkpt>
      <trkpt lat="43.94203" lon="6.24124">
        <ele>791</ele>
        <time>2018-09-23T10:00:49Z</time>
      </trkpt>
      <trkpt lat="43.94193" lon="6.2412">
        <ele>789.1</ele>
        <time>2018-09-23T10:01:05Z</time>
      </trkpt>
      <trkpt lat="43.94183" lon="6.24118">
        <ele>788</ele>
        <time>2018-09-23T10:01:14Z</time>
      </trkpt>
      <trkpt lat="43.94175" lon="6.24111">
        <ele>786.6</ele>
        <time>2018-09-23T10:01:26Z</time>
      </trkpt>
      <trkpt lat="43.94168" lon="6.24103">
        <ele>784.8</ele>
        <time>2018-09-23T10:01:41Z</time>
      </trkpt>
      <trkpt lat="43.94159" lon="6.24099">
        <ele>783.9</ele>
        <time>2018-09-23T10:01:51Z</time>
      </trkpt>
      <trkpt lat="43.9415" lon="6.24096">
        <ele>782.7</ele>
        <time>2018-09-23T10:02:10Z</time>
      </trkpt>
      <trkpt lat="43.94141" lon="6.24096">
        <ele>782.1</ele>
        <time>2018-09-23T10:02:29Z</time>
      </trkpt>
      <trkpt lat="43.94131" lon="6.24097">
        <ele>782</ele>
        <time>2018-09-23T10:02:38Z</time>
      </trkpt>
      <trkpt lat="43.94127" lon="6.24109">
        <ele>782.3</ele>
        <time>2018-09-23T10:02:48Z</time>
      </trkpt>
      <trkpt lat="43.94119" lon="6.24116">
        <ele>783.2</ele>
        <time>2018-09-23T10:03:01Z</time>
      </trkpt>
      <trkpt lat="43.94111" lon="6.24124">
        <ele>784.2</ele>
        <time>2018-09-23T10:03:14Z</time>
      </trkpt>
      <trkpt lat="43.94102" lon="6.24126">
        <ele>785</ele>
        <time>2018-09-23T10:03:25Z</time>
      </trkpt>
      <trkpt lat="43.94096" lon="6.24135">
        <ele>785.9</ele>
        <time>2018-09-23T10:03:35Z</time>
      </trkpt>
      <trkpt lat="43.94089" lon="6.24143">
        <ele>787.2</ele>
        <time>2018-09-23T10:03:48Z</time>
      </trkpt>
      <trkpt lat="43.94082" lon="6.24152">
        <ele>788.2</ele>
        <time>2018-09-23T10:03:58Z</time>
      </trkpt>
      <trkpt lat="43.94075" lon="6.2416">
        <ele>789.1</ele>
        <time>2018-09-23T10:04:07Z</time>
      </trkpt>
      <trkpt lat="43.94066" lon="6.24166">
        <ele>789.9</ele>
        <time>2018-09-23T10:04:19Z</time>
      </trkpt>
      <trkpt lat="43.94065" lon="6.24179">
        <ele>790.8</ele>
        <time>2018-09-23T10:04:30Z</time>
      </trkpt>
      <trkpt lat="43.94058" lon="6.24187">
        <ele>791.7</ele>
        <time>2018-09-23T10:04:38Z</time>
      </trkpt>
      <trkpt lat="43.94048" lon="6.2419">
        <ele>792.6</ele>
        <time>2018-09-23T10:04:46Z</time>
      </trkpt>
      <trkpt lat="43.9404" lon="6.24183">
        <ele>793.5</ele>
        <time>2018-09-23T10:04:55Z</time>
      </trkpt>
      <trkpt lat="43.94032" lon="6.24177">
        <ele>794.5</ele>
        <time>2018-09-23T10:05:05Z</time>
      </trkpt>
      <trkpt lat="43.94024" lon="6.24184">
        <ele>796.1</ele>
        <time>2018-09-23T10:05:19Z</time>
      </trkpt>
      <trkpt lat="43.94026" lon="6.24197">
        <ele>796.5</ele>
        <time>2018-09-23T10:05:26Z</time>
      </trkpt>
      <trkpt lat="43.94025" lon="6.24209">
        <ele>796.9</ele>
        <time>2018-09-23T10:05:35Z</time>
      </trkpt>
      <trkpt lat="43.94021" lon="6.24221">
        <ele>797</ele>
        <time>2018-09-23T10:05:42Z</time>
      </trkpt>
      <trkpt lat="43.94018" lon="6.24232">
        <ele>797.1</ele>
        <time>2018-09-23T10:05:49Z</time>
      </trkpt>
      <trkpt lat="43.94009" lon="6.24238">
        <ele>797.2</ele>
        <time>2018-09-23T10:05:58Z</time>
      </trkpt>
      <trkpt lat="43.94006" lon="6.2425">
        <ele>797.2</ele>
        <time>2018-09-23T10:06:07Z</time>
      </trkpt>
      <trkpt lat="43.93997" lon="6.24258">
        <ele>796.8</ele>
        <time>2018-09-23T10:06:18Z</time>
      </trkpt>
      <trkpt lat="43.93988" lon="6.24264">
        <ele>796.5</ele>
        <time>2018-09-23T10:06:26Z</time>
      </trkpt>
      <trkpt lat="43.9398" lon="6.24271">
        <ele>796.2</ele>
        <time>2018-09-23T10:06:32Z</time>
      </trkpt>
      <trkpt lat="43.9397" lon="6.24274">
        <ele>795.8</ele>
        <time>2018-09-23T10:06:39Z</time>
      </trkpt>
      <trkpt lat="43.9396" lon="6.24269">
        <ele>795.1</ele>
        <time>2018-09-23T10:06:51Z</time>
      </trkpt>
      <trkpt lat="43.9395" lon="6.24268">
        <ele>794.5</ele>
        <time>2018-09-23T10:07:01Z</time>
      </trkpt>
      <trkpt lat="43.93941" lon="6.2427">
        <ele>794.3</ele>
        <time>2018-09-23T10:07:08Z</time>
      </trkpt>
      <trkpt lat="43.93932" lon="6.24271">
        <ele>794</ele>
        <time>2018-09-23T10:07:21Z</time>
      </trkpt>
      <trkpt lat="43.93922" lon="6.24269">
        <ele>793.6</ele>
        <time>2018-09-23T10:07:35Z</time>
      </trkpt>
      <trkpt lat="43.93919" lon="6.24281">
        <ele>793.2</ele>
        <time>2018-09-23T10:07:47Z</time>
      </trkpt>
      <trkpt lat="43.93912" lon="6.24291">
        <ele>792.7</ele>
        <time>2018-09-23T10:07:56Z</time>
      </trkpt>
      <trkpt lat="43.93904" lon="6.24298">
        <ele>792.4</ele>
        <time>2018-09-23T10:08:05Z</time>
      </trkpt>
      <trkpt lat="43.93895" lon="6.24305">
        <ele>792.1</ele>
        <time>2018-09-23T10:08:11Z</time>
      </trkpt>
      <trkpt lat="43.93886" lon="6.24302">
        <ele>791.8</ele>
        <time>2018-09-23T10:08:17Z</time>
      </trkpt>
      <trkpt lat="43.93877" lon="6.24307">
        <ele>791.3</ele>
        <time>2018-09-23T10:08:28Z</time>
      </trkpt>
      <trkpt lat="43.93869" lon="6.24314">
        <ele>791</ele>
        <time>2018-09-23T10:08:39Z</time>
      </trkpt>
      <trkpt lat="43.93864" lon="6.24325">
        <ele>790.7</ele>
        <time>2018-09-23T10:08:54Z</time>
      </trkpt>
      <trkpt lat="43.93858" lon="6.24335">
        <ele>790.6</ele>
        <time>2018-09-23T10:09:05Z</time>
      </trkpt>
      <trkpt lat="43.9385" lon="6.2434">
        <ele>790.1</ele>
        <time>2018-09-23T10:09:48Z</time>
      </trkpt>
      <trkpt lat="43.93843" lon="6.24348">
        <ele>789.8</ele>
        <time>2018-09-23T10:09:58Z</time>
      </trkpt>
      <trkpt lat="43.93835" lon="6.24356">
        <ele>789.2</ele>
        <time>2018-09-23T10:10:08Z</time>
      </trkpt>
      <trkpt lat="43.93829" lon="6.24365">
        <ele>788.8</ele>
        <time>2018-09-23T10:10:16Z</time>
      </trkpt>
      <trkpt lat="43.93823" lon="6.24374">
        <ele>788.6</ele>
        <time>2018-09-23T10:10:22Z</time>
      </trkpt>
      <trkpt lat="43.93815" lon="6.2438">
        <ele>788</ele>
        <time>2018-09-23T10:10:33Z</time>
      </trkpt>
      <trkpt lat="43.93807" lon="6.24388">
        <ele>787.6</ele>
        <time>2018-09-23T10:10:42Z</time>
      </trkpt>
      <trkpt lat="43.93798" lon="6.24392">
        <ele>787.1</ele>
        <time>2018-09-23T10:10:52Z</time>
      </trkpt>
      <trkpt lat="43.9379" lon="6.24399">
        <ele>786.5</ele>
        <time>2018-09-23T10:11:06Z</time>
      </trkpt>
      <trkpt lat="43.93781" lon="6.24404">
        <ele>785.9</ele>
        <time>2018-09-23T10:11:21Z</time>
      </trkpt>
      <trkpt lat="43.93773" lon="6.24409">
        <ele>785.2</ele>
        <time>2018-09-23T10:11:35Z</time>
      </trkpt>
      <trkpt lat="43.93763" lon="6.24411">
        <ele>784.8</ele>
        <time>2018-09-23T10:11:47Z</time>
      </trkpt>
      <trkpt lat="43.93756" lon="6.24419">
        <ele>784.5</ele>
        <time>2018-09-23T10:11:56Z</time>
      </trkpt>
      <trkpt lat="43.93747" lon="6.24426">
        <ele>784</ele>
        <time>2018-09-23T10:12:08Z</time>
      </trkpt>
      <trkpt lat="43.93738" lon="6.24435">
        <ele>783.3</ele>
        <time>2018-09-23T10:12:41Z</time>
      </trkpt>
      <trkpt lat="43.93728" lon="6.24433">
        <ele>782.7</ele>
        <time>2018-09-23T10:12:57Z</time>
      </trkpt>
      <trkpt lat="43.93718" lon="6.24433">
        <ele>782.2</ele>
        <time>2018-09-23T10:13:07Z</time>
      </trkpt>
      <trkpt lat="43.93709" lon="6.24436">
        <ele>781.7</ele>
        <time>2018-09-23T10:13:16Z</time>
      </trkpt>
      <trkpt lat="43.93701" lon="6.24444">
        <ele>781.3</ele>
        <time>2018-09-23T10:13:24Z</time>
      </trkpt>
      <trkpt lat="43.93693" lon="6.2445">
        <ele>780.8</ele>
        <time>2018-09-23T10:13:35Z</time>
      </trkpt>
      <trkpt lat="43.93686" lon="6.24459">
        <ele>780.3</ele>
        <time>2018-09-23T10:13:51Z</time>
      </trkpt>
      <trkpt lat="43.9368" lon="6.24469">
        <ele>779.9</ele>
        <time>2018-09-23T10:14:03Z</time>
      </trkpt>
      <trkpt lat="43.93674" lon="6.24479">
        <ele>779.4</ele>
        <time>2018-09-23T10:14:19Z</time>
      </trkpt>
      <trkpt lat="43.93671" lon="6.24492">
        <ele>779.2</ele>
        <time>2018-09-23T10:14:31Z</time>
      </trkpt>
      <trkpt lat="43.93668" lon="6.24504">
        <ele>779</ele>
        <time>2018-09-23T10:14:38Z</time>
      </trkpt>
      <trkpt lat="43.93663" lon="6.24517">
        <ele>778.2</ele>
        <time>2018-09-23T10:14:54Z</time>
      </trkpt>
      <trkpt lat="43.93658" lon="6.24529">
        <ele>777.5</ele>
        <time>2018-09-23T10:15:06Z</time>
      </trkpt>
      <trkpt lat="43.93656" lon="6.24542">
        <ele>777</ele>
        <time>2018-09-23T10:15:27Z</time>
      </trkpt>
      <trkpt lat="43.93652" lon="6.24554">
        <ele>776.5</ele>
        <time>2018-09-23T10:15:43Z</time>
      </trkpt>
      <trkpt lat="43.93644" lon="6.2456">
        <ele>776.1</ele>
        <time>2018-09-23T10:15:53Z</time>
      </trkpt>
      <trkpt lat="43.93636" lon="6.24567">
        <ele>775.6</ele>
        <time>2018-09-23T10:16:05Z</time>
      </trkpt>
      <trkpt lat="43.9364" lon="6.24578">
        <ele>775.4</ele>
        <time>2018-09-23T10:16:16Z</time>
      </trkpt>
      <trkpt lat="43.93643" lon="6.24592">
        <ele>775.1</ele>
        <time>2018-09-23T10:16:32Z</time>
      </trkpt>
      <trkpt lat="43.93633" lon="6.24593">
        <ele>775</ele>
        <time>2018-09-23T10:16:41Z</time>
      </trkpt>
      <trkpt lat="43.93623" lon="6.24594">
        <ele>774.9</ele>
        <time>2018-09-23T10:16:49Z</time>
      </trkpt>
      <trkpt lat="43.93613" lon="6.24597">
        <ele>774.8</ele>
        <time>2018-09-23T10:17:02Z</time>
      </trkpt>
      <trkpt lat="43.93604" lon="6.24601">
        <ele>774.8</ele>
        <time>2018-09-23T10:17:15Z</time>
      </trkpt>
      <trkpt lat="43.93595" lon="6.24604">
        <ele>774.8</ele>
        <time>2018-09-23T10:17:24Z</time>
      </trkpt>
      <trkpt lat="43.93604" lon="6.24618">
        <ele>774.5</ele>
        <time>2018-09-23T10:17:34Z</time>
      </trkpt>
      <trkpt lat="43.93591" lon="6.24624">
        <ele>774</ele>
        <time>2018-09-23T10:17:40Z</time>
      </trkpt>
      <trkpt lat="43.93582" lon="6.24627">
        <ele>773.7</ele>
        <time>2018-09-23T10:17:45Z</time>
      </trkpt>
      <trkpt lat="43.93575" lon="6.24619">
        <ele>771.1</ele>
        <time>2018-09-23T10:18:12Z</time>
      </trkpt>
      <trkpt lat="43.93564" lon="6.24613">
        <ele>769</ele>
        <time>2018-09-23T10:18:24Z</time>
      </trkpt>
      <trkpt lat="43.93556" lon="6.24606">
        <ele>769.1</ele>
        <time>2018-09-23T10:18:31Z</time>
      </trkpt>
      <trkpt lat="43.93548" lon="6.24597">
        <ele>767.8</ele>
        <time>2018-09-23T10:18:40Z</time>
      </trkpt>
      <trkpt lat="43.9354" lon="6.24588">
        <ele>766.9</ele>
        <time>2018-09-23T10:18:47Z</time>
      </trkpt>
      <trkpt lat="43.93533" lon="6.24581">
        <ele>766.2</ele>
        <time>2018-09-23T10:18:53Z</time>
      </trkpt>
      <trkpt lat="43.93526" lon="6.24573">
        <ele>765.3</ele>
        <time>2018-09-23T10:19:00Z</time>
      </trkpt>
      <trkpt lat="43.93516" lon="6.24569">
        <ele>764</ele>
        <time>2018-09-23T10:19:10Z</time>
      </trkpt>
      <trkpt lat="43.93507" lon="6.24565">
        <ele>763.1</ele>
        <time>2018-09-23T10:19:16Z</time>
      </trkpt>
      <trkpt lat="43.93497" lon="6.24559">
        <ele>761</ele>
        <time>2018-09-23T10:19:25Z</time>
      </trkpt>
      <trkpt lat="43.93488" lon="6.24553">
        <ele>760</ele>
        <time>2018-09-23T10:19:31Z</time>
      </trkpt>
      <trkpt lat="43.93479" lon="6.24548">
        <ele>760</ele>
        <time>2018-09-23T10:19:39Z</time>
      </trkpt>
      <trkpt lat="43.93467" lon="6.24549">
        <ele>758</ele>
        <time>2018-09-23T10:19:53Z</time>
      </trkpt>
      <trkpt lat="43.93456" lon="6.24548">
        <ele>756.9</ele>
        <time>2018-09-23T10:20:00Z</time>
      </trkpt>
      <trkpt lat="43.93445" lon="6.24542">
        <ele>756.4</ele>
        <time>2018-09-23T10:20:03Z</time>
      </trkpt>
      <trkpt lat="43.93435" lon="6.24538">
        <ele>755.5</ele>
        <time>2018-09-23T10:20:09Z</time>
      </trkpt>
      <trkpt lat="43.93426" lon="6.24532">
        <ele>754.9</ele>
        <time>2018-09-23T10:20:13Z</time>
      </trkpt>
      <trkpt lat="43.93414" lon="6.24529">
        <ele>753.5</ele>
        <time>2018-09-23T10:20:22Z</time>
      </trkpt>
      <trkpt lat="43.93404" lon="6.24532">
        <ele>750.9</ele>
        <time>2018-09-23T10:20:37Z</time>
      </trkpt>
      <trkpt lat="43.93394" lon="6.24531">
        <ele>750.2</ele>
        <time>2018-09-23T10:20:42Z</time>
      </trkpt>
      <trkpt lat="43.93386" lon="6.24537">
        <ele>747.4</ele>
        <time>2018-09-23T10:21:01Z</time>
      </trkpt>
      <trkpt lat="43.9338" lon="6.24548">
        <ele>745</ele>
        <time>2018-09-23T10:21:19Z</time>
      </trkpt>
      <trkpt lat="43.93371" lon="6.24551">
        <ele>743.8</ele>
        <time>2018-09-23T10:21:28Z</time>
      </trkpt>
      <trkpt lat="43.9336" lon="6.24553">
        <ele>742.9</ele>
        <time>2018-09-23T10:21:37Z</time>
      </trkpt>
      <trkpt lat="43.93357" lon="6.24566">
        <ele>685.7</ele>
        <time>2018-09-23T11:01:15Z</time>
      </trkpt>
      <trkpt lat="43.93358" lon="6.24562">
        <ele>710</ele>
        <time>2018-09-23T11:17:15Z</time>
      </trkpt>
      <trkpt lat="43.93367" lon="6.24555">
        <ele>711</ele>
        <time>2018-09-23T11:17:20Z</time>
      </trkpt>
      <trkpt lat="43.93376" lon="6.2455">
        <ele>711.4</ele>
        <time>2018-09-23T11:17:27Z</time>
      </trkpt>
      <trkpt lat="43.93379" lon="6.24538">
        <ele>711.7</ele>
        <time>2018-09-23T11:17:37Z</time>
      </trkpt>
      <trkpt lat="43.93381" lon="6.24524">
        <ele>713.9</ele>
        <time>2018-09-23T11:18:09Z</time>
      </trkpt>
      <trkpt lat="43.9339" lon="6.24519">
        <ele>716.7</ele>
        <time>2018-09-23T11:18:37Z</time>
      </trkpt>
      <trkpt lat="43.93393" lon="6.24507">
        <ele>718.1</ele>
        <time>2018-09-23T11:18:50Z</time>
      </trkpt>
      <trkpt lat="43.93399" lon="6.24496">
        <ele>719.6</ele>
        <time>2018-09-23T11:19:02Z</time>
      </trkpt>
      <trkpt lat="43.934" lon="6.2449">
        <ele>725.8</ele>
        <time>2018-09-23T11:19:46Z</time>
      </trkpt>
      <trkpt lat="43.93408" lon="6.24485">
        <ele>726.2</ele>
        <time>2018-09-23T11:19:49Z</time>
      </trkpt>
      <trkpt lat="43.93418" lon="6.24476">
        <ele>727.4</ele>
        <time>2018-09-23T11:19:58Z</time>
      </trkpt>
      <trkpt lat="43.93431" lon="6.24478">
        <ele>728.8</ele>
        <time>2018-09-23T11:20:09Z</time>
      </trkpt>
      <trkpt lat="43.93442" lon="6.24476">
        <ele>729.5</ele>
        <time>2018-09-23T11:20:14Z</time>
      </trkpt>
      <trkpt lat="43.93451" lon="6.24471">
        <ele>730.9</ele>
        <time>2018-09-23T11:20:25Z</time>
      </trkpt>
      <trkpt lat="43.93459" lon="6.24464">
        <ele>732.4</ele>
        <time>2018-09-23T11:20:36Z</time>
      </trkpt>
      <trkpt lat="43.93466" lon="6.24456">
        <ele>733</ele>
        <time>2018-09-23T11:20:42Z</time>
      </trkpt>
      <trkpt lat="43.93472" lon="6.24446">
        <ele>734.6</ele>
        <time>2018-09-23T11:20:56Z</time>
      </trkpt>
      <trkpt lat="43.9348" lon="6.2444">
        <ele>735.9</ele>
        <time>2018-09-23T11:21:06Z</time>
      </trkpt>
      <trkpt lat="43.93488" lon="6.24431">
        <ele>738</ele>
        <time>2018-09-23T11:21:23Z</time>
      </trkpt>
      <trkpt lat="43.93491" lon="6.2442">
        <ele>739.3</ele>
        <time>2018-09-23T11:21:33Z</time>
      </trkpt>
      <trkpt lat="43.93495" lon="6.24407">
        <ele>740.4</ele>
        <time>2018-09-23T11:21:40Z</time>
      </trkpt>
      <trkpt lat="43.93497" lon="6.24394">
        <ele>742.1</ele>
        <time>2018-09-23T11:21:53Z</time>
      </trkpt>
      <trkpt lat="43.93495" lon="6.24382">
        <ele>743.2</ele>
        <time>2018-09-23T11:22:01Z</time>
      </trkpt>
      <trkpt lat="43.93491" lon="6.24369">
        <ele>743.8</ele>
        <time>2018-09-23T11:22:06Z</time>
      </trkpt>
      <trkpt lat="43.93487" lon="6.24357">
        <ele>744.6</ele>
        <time>2018-09-23T11:22:12Z</time>
      </trkpt>
      <trkpt lat="43.93484" lon="6.24344">
        <ele>745.4</ele>
        <time>2018-09-23T11:22:17Z</time>
      </trkpt>
      <trkpt lat="43.93477" lon="6.24334">
        <ele>746.6</ele>
        <time>2018-09-23T11:22:25Z</time>
      </trkpt>
      <trkpt lat="43.93474" lon="6.24321">
        <ele>747.4</ele>
        <time>2018-09-23T11:22:32Z</time>
      </trkpt>
      <trkpt lat="43.93471" lon="6.24309">
        <ele>748.4</ele>
        <time>2018-09-23T11:22:39Z</time>
      </trkpt>
      <trkpt lat="43.93462" lon="6.24305">
        <ele>750.1</ele>
        <time>2018-09-23T11:22:50Z</time>
      </trkpt>
      <trkpt lat="43.93453" lon="6.243">
        <ele>751.6</ele>
        <time>2018-09-23T11:23:01Z</time>
      </trkpt>
      <trkpt lat="43.93444" lon="6.24299">
        <ele>753.1</ele>
        <time>2018-09-23T11:23:12Z</time>
      </trkpt>
      <trkpt lat="43.93434" lon="6.24304">
        <ele>754</ele>
        <time>2018-09-23T11:23:19Z</time>
      </trkpt>
      <trkpt lat="43.93425" lon="6.24309">
        <ele>755.2</ele>
        <time>2018-09-23T11:23:29Z</time>
      </trkpt>
      <trkpt lat="43.93418" lon="6.24317">
        <ele>756.7</ele>
        <time>2018-09-23T11:23:40Z</time>
      </trkpt>
      <trkpt lat="43.9341" lon="6.24325">
        <ele>758</ele>
        <time>2018-09-23T11:23:50Z</time>
      </trkpt>
      <trkpt lat="43.93402" lon="6.24322">
        <ele>760.6</ele>
        <time>2018-09-23T11:24:11Z</time>
      </trkpt>
      <trkpt lat="43.93392" lon="6.24326">
        <ele>762.2</ele>
        <time>2018-09-23T11:24:22Z</time>
      </trkpt>
      <trkpt lat="43.93398" lon="6.24343">
        <ele>764.9</ele>
        <time>2018-09-23T11:24:50Z</time>
      </trkpt>
      <trkpt lat="43.93389" lon="6.24337">
        <ele>765.5</ele>
        <time>2018-09-23T11:24:57Z</time>
      </trkpt>
      <trkpt lat="43.9338" lon="6.24335">
        <ele>766.2</ele>
        <time>2018-09-23T11:25:05Z</time>
      </trkpt>
      <trkpt lat="43.93371" lon="6.24331">
        <ele>768.2</ele>
        <time>2018-09-23T11:25:21Z</time>
      </trkpt>
      <trkpt lat="43.93362" lon="6.24327">
        <ele>769.4</ele>
        <time>2018-09-23T11:25:30Z</time>
      </trkpt>
      <trkpt lat="43.93353" lon="6.24326">
        <ele>770.5</ele>
        <time>2018-09-23T11:25:39Z</time>
      </trkpt>
      <trkpt lat="43.93346" lon="6.24318">
        <ele>771.5</ele>
        <time>2018-09-23T11:25:47Z</time>
      </trkpt>
      <trkpt lat="43.93337" lon="6.24313">
        <ele>772.6</ele>
        <time>2018-09-23T11:25:56Z</time>
      </trkpt>
      <trkpt lat="43.93328" lon="6.24308">
        <ele>773.7</ele>
        <time>2018-09-23T11:26:04Z</time>
      </trkpt>
      <trkpt lat="43.93319" lon="6.24308">
        <ele>774.8</ele>
        <time>2018-09-23T11:26:13Z</time>
      </trkpt>
      <trkpt lat="43.9331" lon="6.24303">
        <ele>775.8</ele>
        <time>2018-09-23T11:26:22Z</time>
      </trkpt>
      <trkpt lat="43.93301" lon="6.24302">
        <ele>777</ele>
        <time>2018-09-23T11:26:32Z</time>
      </trkpt>
      <trkpt lat="43.93293" lon="6.24294">
        <ele>778.2</ele>
        <time>2018-09-23T11:26:42Z</time>
      </trkpt>
      <trkpt lat="43.93285" lon="6.24288">
        <ele>779.4</ele>
        <time>2018-09-23T11:26:53Z</time>
      </trkpt>
      <trkpt lat="43.93277" lon="6.24283">
        <ele>780.5</ele>
        <time>2018-09-23T11:27:02Z</time>
      </trkpt>
      <trkpt lat="43.93268" lon="6.24278">
        <ele>781.4</ele>
        <time>2018-09-23T11:27:09Z</time>
      </trkpt>
      <trkpt lat="43.93258" lon="6.24277">
        <ele>782.9</ele>
        <time>2018-09-23T11:27:21Z</time>
      </trkpt>
      <trkpt lat="43.93251" lon="6.24267">
        <ele>783.8</ele>
        <time>2018-09-23T11:27:29Z</time>
      </trkpt>
      <trkpt lat="43.93245" lon="6.24258">
        <ele>784.7</ele>
        <time>2018-09-23T11:27:37Z</time>
      </trkpt>
      <trkpt lat="43.93238" lon="6.24249">
        <ele>786.1</ele>
        <time>2018-09-23T11:27:48Z</time>
      </trkpt>
      <trkpt lat="43.93235" lon="6.24237">
        <ele>787</ele>
        <time>2018-09-23T11:27:55Z</time>
      </trkpt>
      <trkpt lat="43.93231" lon="6.24224">
        <ele>787.9</ele>
        <time>2018-09-23T11:28:01Z</time>
      </trkpt>
      <trkpt lat="43.93226" lon="6.24213">
        <ele>788.8</ele>
        <time>2018-09-23T11:28:08Z</time>
      </trkpt>
      <trkpt lat="43.93216" lon="6.24207">
        <ele>790.3</ele>
        <time>2018-09-23T11:28:19Z</time>
      </trkpt>
      <trkpt lat="43.93207" lon="6.24201">
        <ele>791.5</ele>
        <time>2018-09-23T11:28:29Z</time>
      </trkpt>
      <trkpt lat="43.93198" lon="6.24197">
        <ele>792.7</ele>
        <time>2018-09-23T11:28:39Z</time>
      </trkpt>
      <trkpt lat="43.93189" lon="6.24197">
        <ele>794.2</ele>
        <time>2018-09-23T11:28:52Z</time>
      </trkpt>
      <trkpt lat="43.93182" lon="6.24188">
        <ele>795.4</ele>
        <time>2018-09-23T11:29:04Z</time>
      </trkpt>
      <trkpt lat="43.93186" lon="6.24176">
        <ele>797.6</ele>
        <time>2018-09-23T11:29:41Z</time>
      </trkpt>
      <trkpt lat="43.93194" lon="6.24169">
        <ele>798.8</ele>
        <time>2018-09-23T11:29:55Z</time>
      </trkpt>
      <trkpt lat="43.93203" lon="6.24172">
        <ele>800.2</ele>
        <time>2018-09-23T11:30:11Z</time>
      </trkpt>
      <trkpt lat="43.93216" lon="6.24168">
        <ele>801.8</ele>
        <time>2018-09-23T11:30:27Z</time>
      </trkpt>
      <trkpt lat="43.93225" lon="6.24165">
        <ele>802.9</ele>
        <time>2018-09-23T11:30:38Z</time>
      </trkpt>
      <trkpt lat="43.93231" lon="6.24179">
        <ele>803.5</ele>
        <time>2018-09-23T11:30:46Z</time>
      </trkpt>
      <trkpt lat="43.93238" lon="6.24188">
        <ele>803.9</ele>
        <time>2018-09-23T11:30:50Z</time>
      </trkpt>
      <trkpt lat="43.93251" lon="6.24201">
        <ele>805</ele>
        <time>2018-09-23T11:31:00Z</time>
      </trkpt>
      <trkpt lat="43.93259" lon="6.24208">
        <ele>805.8</ele>
        <time>2018-09-23T11:31:09Z</time>
      </trkpt>
      <trkpt lat="43.93266" lon="6.24218">
        <ele>806.4</ele>
        <time>2018-09-23T11:31:14Z</time>
      </trkpt>
      <trkpt lat="43.93274" lon="6.24224">
        <ele>807.2</ele>
        <time>2018-09-23T11:31:22Z</time>
      </trkpt>
      <trkpt lat="43.93283" lon="6.24227">
        <ele>808</ele>
        <time>2018-09-23T11:31:31Z</time>
      </trkpt>
      <trkpt lat="43.93295" lon="6.24231">
        <ele>810.7</ele>
        <time>2018-09-23T11:32:09Z</time>
      </trkpt>
      <trkpt lat="43.93305" lon="6.24231">
        <ele>814</ele>
        <time>2018-09-23T11:33:15Z</time>
      </trkpt>
      <trkpt lat="43.93315" lon="6.2423">
        <ele>814.9</ele>
        <time>2018-09-23T11:33:35Z</time>
      </trkpt>
      <trkpt lat="43.9333" lon="6.24216">
        <ele>817</ele>
        <time>2018-09-23T11:35:10Z</time>
      </trkpt>
      <trkpt lat="43.93339" lon="6.24215">
        <ele>817.9</ele>
        <time>2018-09-23T11:35:21Z</time>
      </trkpt>
      <trkpt lat="43.93348" lon="6.24214">
        <ele>818.6</ele>
        <time>2018-09-23T11:35:34Z</time>
      </trkpt>
      <trkpt lat="43.93358" lon="6.24214">
        <ele>819.3</ele>
        <time>2018-09-23T11:35:43Z</time>
      </trkpt>
      <trkpt lat="43.93368" lon="6.24213">
        <ele>819.9</ele>
        <time>2018-09-23T11:35:52Z</time>
      </trkpt>
      <trkpt lat="43.93375" lon="6.24219">
        <ele>821.2</ele>
        <time>2018-09-23T11:36:06Z</time>
      </trkpt>
      <trkpt lat="43.93385" lon="6.24223">
        <ele>822.4</ele>
        <time>2018-09-23T11:36:21Z</time>
      </trkpt>
      <trkpt lat="43.93394" lon="6.24221">
        <ele>823.2</ele>
        <time>2018-09-23T11:36:33Z</time>
      </trkpt>
      <trkpt lat="43.93403" lon="6.24216">
        <ele>824.1</ele>
        <time>2018-09-23T11:36:45Z</time>
      </trkpt>
      <trkpt lat="43.93411" lon="6.2421">
        <ele>825</ele>
        <time>2018-09-23T11:36:59Z</time>
      </trkpt>
      <trkpt lat="43.9342" lon="6.24206">
        <ele>825.7</ele>
        <time>2018-09-23T11:37:11Z</time>
      </trkpt>
      <trkpt lat="43.93429" lon="6.24202">
        <ele>826.3</ele>
        <time>2018-09-23T11:37:21Z</time>
      </trkpt>
      <trkpt lat="43.93437" lon="6.24197">
        <ele>827</ele>
        <time>2018-09-23T11:37:31Z</time>
      </trkpt>
      <trkpt lat="43.93444" lon="6.24187">
        <ele>827.9</ele>
        <time>2018-09-23T11:37:42Z</time>
      </trkpt>
      <trkpt lat="43.93452" lon="6.24181">
        <ele>828.8</ele>
        <time>2018-09-23T11:37:57Z</time>
      </trkpt>
      <trkpt lat="43.93463" lon="6.24179">
        <ele>829.4</ele>
        <time>2018-09-23T11:38:06Z</time>
      </trkpt>
      <trkpt lat="43.93468" lon="6.24168">
        <ele>830.3</ele>
        <time>2018-09-23T11:38:25Z</time>
      </trkpt>
      <trkpt lat="43.93476" lon="6.24163">
        <ele>831</ele>
        <time>2018-09-23T11:38:37Z</time>
      </trkpt>
      <trkpt lat="43.93489" lon="6.24163">
        <ele>831.3</ele>
        <time>2018-09-23T11:38:41Z</time>
      </trkpt>
      <trkpt lat="43.93497" lon="6.24169">
        <ele>832</ele>
        <time>2018-09-23T11:38:52Z</time>
      </trkpt>
      <trkpt lat="43.93507" lon="6.2417">
        <ele>832.5</ele>
        <time>2018-09-23T11:39:02Z</time>
      </trkpt>
      <trkpt lat="43.93512" lon="6.2418">
        <ele>833.3</ele>
        <time>2018-09-23T11:39:25Z</time>
      </trkpt>
      <trkpt lat="43.9352" lon="6.24186">
        <ele>833.7</ele>
        <time>2018-09-23T11:39:35Z</time>
      </trkpt>
      <trkpt lat="43.93527" lon="6.24195">
        <ele>834.6</ele>
        <time>2018-09-23T11:39:49Z</time>
      </trkpt>
      <trkpt lat="43.93537" lon="6.24198">
        <ele>835.4</ele>
        <time>2018-09-23T11:40:04Z</time>
      </trkpt>
      <trkpt lat="43.93546" lon="6.24198">
        <ele>836.1</ele>
        <time>2018-09-23T11:40:18Z</time>
      </trkpt>
      <trkpt lat="43.9355" lon="6.2421">
        <ele>837.2</ele>
        <time>2018-09-23T11:40:48Z</time>
      </trkpt>
      <trkpt lat="43.93559" lon="6.24207">
        <ele>837.8</ele>
        <time>2018-09-23T11:41:10Z</time>
      </trkpt>
      <trkpt lat="43.93569" lon="6.242">
        <ele>838</ele>
        <time>2018-09-23T11:41:19Z</time>
      </trkpt>
      <trkpt lat="43.93574" lon="6.2419">
        <ele>838.3</ele>
        <time>2018-09-23T11:41:27Z</time>
      </trkpt>
      <trkpt lat="43.93579" lon="6.24178">
        <ele>838.7</ele>
        <time>2018-09-23T11:41:39Z</time>
      </trkpt>
      <trkpt lat="43.93587" lon="6.24171">
        <ele>839</ele>
        <time>2018-09-23T11:41:47Z</time>
      </trkpt>
      <trkpt lat="43.93591" lon="6.24159">
        <ele>839.5</ele>
        <time>2018-09-23T11:41:59Z</time>
      </trkpt>
      <trkpt lat="43.93597" lon="6.24148">
        <ele>840.1</ele>
        <time>2018-09-23T11:42:11Z</time>
      </trkpt>
      <trkpt lat="43.93606" lon="6.24145">
        <ele>840.5</ele>
        <time>2018-09-23T11:42:20Z</time>
      </trkpt>
      <trkpt lat="43.93615" lon="6.24142">
        <ele>840.7</ele>
        <time>2018-09-23T11:42:25Z</time>
      </trkpt>
      <trkpt lat="43.93621" lon="6.24132">
        <ele>841.2</ele>
        <time>2018-09-23T11:42:36Z</time>
      </trkpt>
      <trkpt lat="43.93628" lon="6.24121">
        <ele>841.7</ele>
        <time>2018-09-23T11:42:45Z</time>
      </trkpt>
      <trkpt lat="43.93635" lon="6.24113">
        <ele>841.9</ele>
        <time>2018-09-23T11:42:53Z</time>
      </trkpt>
      <trkpt lat="43.93643" lon="6.24105">
        <ele>842.2</ele>
        <time>2018-09-23T11:42:59Z</time>
      </trkpt>
      <trkpt lat="43.93651" lon="6.24096">
        <ele>842.6</ele>
        <time>2018-09-23T11:43:08Z</time>
      </trkpt>
      <trkpt lat="43.9366" lon="6.24087">
        <ele>843.1</ele>
        <time>2018-09-23T11:43:15Z</time>
      </trkpt>
      <trkpt lat="43.93661" lon="6.24073">
        <ele>843.3</ele>
        <time>2018-09-23T11:43:21Z</time>
      </trkpt>
      <trkpt lat="43.93663" lon="6.2406">
        <ele>843.7</ele>
        <time>2018-09-23T11:43:28Z</time>
      </trkpt>
      <trkpt lat="43.93667" lon="6.24047">
        <ele>844.2</ele>
        <time>2018-09-23T11:43:36Z</time>
      </trkpt>
      <trkpt lat="43.93674" lon="6.24039">
        <ele>844.5</ele>
        <time>2018-09-23T11:43:45Z</time>
      </trkpt>
      <trkpt lat="43.93677" lon="6.24026">
        <ele>844.6</ele>
        <time>2018-09-23T11:43:49Z</time>
      </trkpt>
      <trkpt lat="43.9368" lon="6.24014">
        <ele>844.8</ele>
        <time>2018-09-23T11:43:57Z</time>
      </trkpt>
      <trkpt lat="43.93683" lon="6.24001">
        <ele>845.7</ele>
        <time>2018-09-23T11:44:13Z</time>
      </trkpt>
      <trkpt lat="43.93687" lon="6.23988">
        <ele>846.3</ele>
        <time>2018-09-23T11:44:22Z</time>
      </trkpt>
      <trkpt lat="43.93692" lon="6.23975">
        <ele>846.9</ele>
        <time>2018-09-23T11:44:30Z</time>
      </trkpt>
      <trkpt lat="43.937" lon="6.23967">
        <ele>847.6</ele>
        <time>2018-09-23T11:44:39Z</time>
      </trkpt>
      <trkpt lat="43.93708" lon="6.23964">
        <ele>848.1</ele>
        <time>2018-09-23T11:44:46Z</time>
      </trkpt>
      <trkpt lat="43.93713" lon="6.23952">
        <ele>848.8</ele>
        <time>2018-09-23T11:44:55Z</time>
      </trkpt>
      <trkpt lat="43.9372" lon="6.23944">
        <ele>849.4</ele>
        <time>2018-09-23T11:45:06Z</time>
      </trkpt>
      <trkpt lat="43.93732" lon="6.23939">
        <ele>849.7</ele>
        <time>2018-09-23T11:45:13Z</time>
      </trkpt>
      <trkpt lat="43.93736" lon="6.23927">
        <ele>849.9</ele>
        <time>2018-09-23T11:45:18Z</time>
      </trkpt>
      <trkpt lat="43.93733" lon="6.23914">
        <ele>850.3</ele>
        <time>2018-09-23T11:45:25Z</time>
      </trkpt>
      <trkpt lat="43.93727" lon="6.23902">
        <ele>850.9</ele>
        <time>2018-09-23T11:45:32Z</time>
      </trkpt>
      <trkpt lat="43.93725" lon="6.2389">
        <ele>851.7</ele>
        <time>2018-09-23T11:45:42Z</time>
      </trkpt>
      <trkpt lat="43.93719" lon="6.2388">
        <ele>852.4</ele>
        <time>2018-09-23T11:45:55Z</time>
      </trkpt>
      <trkpt lat="43.93713" lon="6.2387">
        <ele>853.3</ele>
        <time>2018-09-23T11:46:08Z</time>
      </trkpt>
      <trkpt lat="43.93704" lon="6.23858">
        <ele>855.6</ele>
        <time>2018-09-23T11:48:44Z</time>
      </trkpt>
      <trkpt lat="43.93696" lon="6.23851">
        <ele>856.1</ele>
        <time>2018-09-23T11:48:56Z</time>
      </trkpt>
      <trkpt lat="43.93692" lon="6.2384">
        <ele>856.6</ele>
        <time>2018-09-23T11:49:04Z</time>
      </trkpt>
      <trkpt lat="43.93688" lon="6.23828">
        <ele>857.1</ele>
        <time>2018-09-23T11:49:13Z</time>
      </trkpt>
      <trkpt lat="43.93683" lon="6.23817">
        <ele>857.9</ele>
        <time>2018-09-23T11:49:26Z</time>
      </trkpt>
      <trkpt lat="43.93679" lon="6.23805">
        <ele>858.6</ele>
        <time>2018-09-23T11:49:37Z</time>
      </trkpt>
      <trkpt lat="43.9368" lon="6.23791">
        <ele>859.5</ele>
        <time>2018-09-23T11:49:48Z</time>
      </trkpt>
      <trkpt lat="43.93683" lon="6.23774">
        <ele>861.4</ele>
        <time>2018-09-23T11:50:16Z</time>
      </trkpt>
      <trkpt lat="43.93679" lon="6.23762">
        <ele>861.9</ele>
        <time>2018-09-23T11:50:28Z</time>
      </trkpt>
      <trkpt lat="43.93684" lon="6.23749">
        <ele>862.6</ele>
        <time>2018-09-23T11:50:39Z</time>
      </trkpt>
      <trkpt lat="43.9369" lon="6.23739">
        <ele>863.1</ele>
        <time>2018-09-23T11:50:47Z</time>
      </trkpt>
      <trkpt lat="43.9369" lon="6.23727">
        <ele>864</ele>
        <time>2018-09-23T11:50:57Z</time>
      </trkpt>
      <trkpt lat="43.93688" lon="6.23714">
        <ele>865</ele>
        <time>2018-09-23T11:51:08Z</time>
      </trkpt>
      <trkpt lat="43.93691" lon="6.23702">
        <ele>866.4</ele>
        <time>2018-09-23T11:51:23Z</time>
      </trkpt>
      <trkpt lat="43.93699" lon="6.23696">
        <ele>867.5</ele>
        <time>2018-09-23T11:51:43Z</time>
      </trkpt>
      <trkpt lat="43.93707" lon="6.23688">
        <ele>868</ele>
        <time>2018-09-23T11:52:03Z</time>
      </trkpt>
      <trkpt lat="43.93716" lon="6.23683">
        <ele>868.8</ele>
        <time>2018-09-23T11:52:12Z</time>
      </trkpt>
      <trkpt lat="43.93722" lon="6.23674">
        <ele>869.9</ele>
        <time>2018-09-23T11:52:25Z</time>
      </trkpt>
      <trkpt lat="43.93729" lon="6.23665">
        <ele>870.8</ele>
        <time>2018-09-23T11:52:35Z</time>
      </trkpt>
      <trkpt lat="43.93737" lon="6.23658">
        <ele>871.7</ele>
        <time>2018-09-23T11:52:44Z</time>
      </trkpt>
      <trkpt lat="43.93745" lon="6.23652">
        <ele>872.5</ele>
        <time>2018-09-23T11:52:53Z</time>
      </trkpt>
      <trkpt lat="43.93753" lon="6.23644">
        <ele>873.4</ele>
        <time>2018-09-23T11:53:04Z</time>
      </trkpt>
      <trkpt lat="43.93761" lon="6.23637">
        <ele>874.2</ele>
        <time>2018-09-23T11:53:12Z</time>
      </trkpt>
      <trkpt lat="43.93763" lon="6.23623">
        <ele>875.2</ele>
        <time>2018-09-23T11:53:25Z</time>
      </trkpt>
      <trkpt lat="43.93767" lon="6.23612">
        <ele>875.9</ele>
        <time>2018-09-23T11:53:35Z</time>
      </trkpt>
      <trkpt lat="43.93776" lon="6.23601">
        <ele>876.8</ele>
        <time>2018-09-23T11:54:14Z</time>
      </trkpt>
      <trkpt lat="43.93771" lon="6.2359">
        <ele>876.8</ele>
        <time>2018-09-23T11:54:22Z</time>
      </trkpt>
      <trkpt lat="43.93766" lon="6.23579">
        <ele>876.9</ele>
        <time>2018-09-23T11:54:29Z</time>
      </trkpt>
      <trkpt lat="43.93766" lon="6.23566">
        <ele>877.3</ele>
        <time>2018-09-23T11:54:39Z</time>
      </trkpt>
      <trkpt lat="43.93769" lon="6.23553">
        <ele>877.7</ele>
        <time>2018-09-23T11:54:48Z</time>
      </trkpt>
      <trkpt lat="43.93771" lon="6.23541">
        <ele>880.2</ele>
        <time>2018-09-23T11:59:12Z</time>
      </trkpt>
      <trkpt lat="43.93774" lon="6.23529">
        <ele>880.2</ele>
        <time>2018-09-23T11:59:22Z</time>
      </trkpt>
      <trkpt lat="43.93779" lon="6.23518">
        <ele>880.5</ele>
        <time>2018-09-23T11:59:31Z</time>
      </trkpt>
      <trkpt lat="43.9378" lon="6.23505">
        <ele>881</ele>
        <time>2018-09-23T11:59:48Z</time>
      </trkpt>
      <trkpt lat="43.9378" lon="6.23492">
        <ele>881.4</ele>
        <time>2018-09-23T12:00:00Z</time>
      </trkpt>
      <trkpt lat="43.93783" lon="6.23481">
        <ele>881.8</ele>
        <time>2018-09-23T12:00:12Z</time>
      </trkpt>
      <trkpt lat="43.93788" lon="6.2347">
        <ele>883.1</ele>
        <time>2018-09-23T12:00:27Z</time>
      </trkpt>
      <trkpt lat="43.93784" lon="6.23456">
        <ele>883.7</ele>
        <time>2018-09-23T12:00:36Z</time>
      </trkpt>
      <trkpt lat="43.93779" lon="6.23445">
        <ele>884.4</ele>
        <time>2018-09-23T12:00:46Z</time>
      </trkpt>
      <trkpt lat="43.93779" lon="6.23432">
        <ele>885</ele>
        <time>2018-09-23T12:00:58Z</time>
      </trkpt>
      <trkpt lat="43.93777" lon="6.2342">
        <ele>885.8</ele>
        <time>2018-09-23T12:01:10Z</time>
      </trkpt>
      <trkpt lat="43.93773" lon="6.23407">
        <ele>886.4</ele>
        <time>2018-09-23T12:01:21Z</time>
      </trkpt>
      <trkpt lat="43.93773" lon="6.23394">
        <ele>887</ele>
        <time>2018-09-23T12:01:29Z</time>
      </trkpt>
      <trkpt lat="43.93773" lon="6.23381">
        <ele>887.9</ele>
        <time>2018-09-23T12:01:41Z</time>
      </trkpt>
      <trkpt lat="43.93772" lon="6.23368">
        <ele>888.7</ele>
        <time>2018-09-23T12:01:52Z</time>
      </trkpt>
      <trkpt lat="43.93769" lon="6.23355">
        <ele>889.5</ele>
        <time>2018-09-23T12:02:02Z</time>
      </trkpt>
      <trkpt lat="43.93768" lon="6.23342">
        <ele>890.1</ele>
        <time>2018-09-23T12:02:11Z</time>
      </trkpt>
      <trkpt lat="43.93765" lon="6.2333">
        <ele>890.6</ele>
        <time>2018-09-23T12:02:20Z</time>
      </trkpt>
      <trkpt lat="43.93761" lon="6.23318">
        <ele>891.5</ele>
        <time>2018-09-23T12:02:31Z</time>
      </trkpt>
      <trkpt lat="43.93756" lon="6.23308">
        <ele>892.5</ele>
        <time>2018-09-23T12:02:44Z</time>
      </trkpt>
      <trkpt lat="43.93749" lon="6.23298">
        <ele>893.5</ele>
        <time>2018-09-23T12:02:55Z</time>
      </trkpt>
      <trkpt lat="43.93742" lon="6.23289">
        <ele>894.5</ele>
        <time>2018-09-23T12:03:08Z</time>
      </trkpt>
      <trkpt lat="43.9374" lon="6.23276">
        <ele>895.1</ele>
        <time>2018-09-23T12:03:14Z</time>
      </trkpt>
      <trkpt lat="43.93739" lon="6.23263">
        <ele>895.8</ele>
        <time>2018-09-23T12:03:23Z</time>
      </trkpt>
      <trkpt lat="43.9374" lon="6.23251">
        <ele>896.6</ele>
        <time>2018-09-23T12:03:32Z</time>
      </trkpt>
      <trkpt lat="43.93744" lon="6.2324">
        <ele>897.2</ele>
        <time>2018-09-23T12:03:41Z</time>
      </trkpt>
      <trkpt lat="43.93747" lon="6.23227">
        <ele>897.7</ele>
        <time>2018-09-23T12:03:48Z</time>
      </trkpt>
      <trkpt lat="43.93756" lon="6.23223">
        <ele>898.4</ele>
        <time>2018-09-23T12:03:57Z</time>
      </trkpt>
      <trkpt lat="43.93765" lon="6.23219">
        <ele>899.3</ele>
        <time>2018-09-23T12:04:08Z</time>
      </trkpt>
      <trkpt lat="43.93774" lon="6.23218">
        <ele>899.9</ele>
        <time>2018-09-23T12:04:17Z</time>
      </trkpt>
      <trkpt lat="43.93784" lon="6.23216">
        <ele>900.6</ele>
        <time>2018-09-23T12:04:26Z</time>
      </trkpt>
      <trkpt lat="43.93793" lon="6.23214">
        <ele>901.3</ele>
        <time>2018-09-23T12:04:36Z</time>
      </trkpt>
      <trkpt lat="43.93802" lon="6.23211">
        <ele>902.1</ele>
        <time>2018-09-23T12:04:48Z</time>
      </trkpt>
      <trkpt lat="43.9381" lon="6.23206">
        <ele>902.7</ele>
        <time>2018-09-23T12:04:57Z</time>
      </trkpt>
      <trkpt lat="43.93819" lon="6.23202">
        <ele>903.5</ele>
        <time>2018-09-23T12:05:08Z</time>
      </trkpt>
      <trkpt lat="43.93827" lon="6.23195">
        <ele>904.7</ele>
        <time>2018-09-23T12:05:24Z</time>
      </trkpt>
      <trkpt lat="43.93834" lon="6.23187">
        <ele>905.6</ele>
        <time>2018-09-23T12:05:36Z</time>
      </trkpt>
      <trkpt lat="43.93843" lon="6.23179">
        <ele>906.2</ele>
        <time>2018-09-23T12:05:45Z</time>
      </trkpt>
      <trkpt lat="43.9385" lon="6.23172">
        <ele>906.8</ele>
        <time>2018-09-23T12:05:51Z</time>
      </trkpt>
      <trkpt lat="43.93856" lon="6.23162">
        <ele>907.9</ele>
        <time>2018-09-23T12:06:04Z</time>
      </trkpt>
      <trkpt lat="43.93865" lon="6.23156">
        <ele>909</ele>
        <time>2018-09-23T12:06:16Z</time>
      </trkpt>
      <trkpt lat="43.93873" lon="6.23148">
        <ele>910.4</ele>
        <time>2018-09-23T12:06:33Z</time>
      </trkpt>
      <trkpt lat="43.93881" lon="6.23141">
        <ele>911.2</ele>
        <time>2018-09-23T12:06:43Z</time>
      </trkpt>
      <trkpt lat="43.93888" lon="6.23133">
        <ele>911.9</ele>
        <time>2018-09-23T12:06:54Z</time>
      </trkpt>
      <trkpt lat="43.93889" lon="6.2312">
        <ele>912.6</ele>
        <time>2018-09-23T12:07:05Z</time>
      </trkpt>
      <trkpt lat="43.93886" lon="6.23107">
        <ele>913.7</ele>
        <time>2018-09-23T12:07:17Z</time>
      </trkpt>
      <trkpt lat="43.93882" lon="6.23096">
        <ele>914.5</ele>
        <time>2018-09-23T12:07:28Z</time>
      </trkpt>
      <trkpt lat="43.9388" lon="6.23083">
        <ele>915.3</ele>
        <time>2018-09-23T12:07:38Z</time>
      </trkpt>
      <trkpt lat="43.93872" lon="6.23075">
        <ele>916</ele>
        <time>2018-09-23T12:07:49Z</time>
      </trkpt>
      <trkpt lat="43.93863" lon="6.23067">
        <ele>916.7</ele>
        <time>2018-09-23T12:08:01Z</time>
      </trkpt>
      <trkpt lat="43.93856" lon="6.23058">
        <ele>917.4</ele>
        <time>2018-09-23T12:08:12Z</time>
      </trkpt>
      <trkpt lat="43.93847" lon="6.23053">
        <ele>917.9</ele>
        <time>2018-09-23T12:08:20Z</time>
      </trkpt>
      <trkpt lat="43.93853" lon="6.23044">
        <ele>918.8</ele>
        <time>2018-09-23T12:08:31Z</time>
      </trkpt>
      <trkpt lat="43.93863" lon="6.23042">
        <ele>919.4</ele>
        <time>2018-09-23T12:08:39Z</time>
      </trkpt>
      <trkpt lat="43.93873" lon="6.23039">
        <ele>919.8</ele>
        <time>2018-09-23T12:08:46Z</time>
      </trkpt>
      <trkpt lat="43.93883" lon="6.23039">
        <ele>920.4</ele>
        <time>2018-09-23T12:08:55Z</time>
      </trkpt>
      <trkpt lat="43.93892" lon="6.23038">
        <ele>921.4</ele>
        <time>2018-09-23T12:09:08Z</time>
      </trkpt>
      <trkpt lat="43.93901" lon="6.2304">
        <ele>921.9</ele>
        <time>2018-09-23T12:09:17Z</time>
      </trkpt>
      <trkpt lat="43.9391" lon="6.2304">
        <ele>922.5</ele>
        <time>2018-09-23T12:09:27Z</time>
      </trkpt>
      <trkpt lat="43.93919" lon="6.2304">
        <ele>923.1</ele>
        <time>2018-09-23T12:09:37Z</time>
      </trkpt>
      <trkpt lat="43.93929" lon="6.23039">
        <ele>924.2</ele>
        <time>2018-09-23T12:09:53Z</time>
      </trkpt>
      <trkpt lat="43.93938" lon="6.23036">
        <ele>924.6</ele>
        <time>2018-09-23T12:10:01Z</time>
      </trkpt>
      <trkpt lat="43.93947" lon="6.2303">
        <ele>925.3</ele>
        <time>2018-09-23T12:10:11Z</time>
      </trkpt>
      <trkpt lat="43.93955" lon="6.23024">
        <ele>926</ele>
        <time>2018-09-23T12:10:22Z</time>
      </trkpt>
      <trkpt lat="43.93964" lon="6.23021">
        <ele>926.8</ele>
        <time>2018-09-23T12:10:31Z</time>
      </trkpt>
      <trkpt lat="43.93972" lon="6.23014">
        <ele>927.8</ele>
        <time>2018-09-23T12:10:42Z</time>
      </trkpt>
      <trkpt lat="43.93981" lon="6.23009">
        <ele>928.8</ele>
        <time>2018-09-23T12:10:54Z</time>
      </trkpt>
      <trkpt lat="43.93991" lon="6.23007">
        <ele>929.8</ele>
        <time>2018-09-23T12:11:05Z</time>
      </trkpt>
      <trkpt lat="43.93999" lon="6.23003">
        <ele>930.8</ele>
        <time>2018-09-23T12:11:18Z</time>
      </trkpt>
      <trkpt lat="43.94008" lon="6.22998">
        <ele>931.6</ele>
        <time>2018-09-23T12:11:28Z</time>
      </trkpt>
      <trkpt lat="43.94017" lon="6.22991">
        <ele>932.3</ele>
        <time>2018-09-23T12:11:41Z</time>
      </trkpt>
      <trkpt lat="43.94024" lon="6.22984">
        <ele>933.2</ele>
        <time>2018-09-23T12:11:52Z</time>
      </trkpt>
      <trkpt lat="43.94033" lon="6.22977">
        <ele>933.8</ele>
        <time>2018-09-23T12:12:02Z</time>
      </trkpt>
      <trkpt lat="43.94042" lon="6.22969">
        <ele>934.3</ele>
        <time>2018-09-23T12:12:09Z</time>
      </trkpt>
      <trkpt lat="43.94049" lon="6.22962">
        <ele>935.2</ele>
        <time>2018-09-23T12:12:19Z</time>
      </trkpt>
      <trkpt lat="43.94056" lon="6.22952">
        <ele>936</ele>
        <time>2018-09-23T12:12:31Z</time>
      </trkpt>
      <trkpt lat="43.94063" lon="6.22944">
        <ele>936.6</ele>
        <time>2018-09-23T12:12:42Z</time>
      </trkpt>
      <trkpt lat="43.9407" lon="6.22934">
        <ele>937.7</ele>
        <time>2018-09-23T12:13:01Z</time>
      </trkpt>
      <trkpt lat="43.94074" lon="6.22922">
        <ele>938.7</ele>
        <time>2018-09-23T12:13:23Z</time>
      </trkpt>
      <trkpt lat="43.94079" lon="6.22911">
        <ele>939.3</ele>
        <time>2018-09-23T12:13:32Z</time>
      </trkpt>
      <trkpt lat="43.94085" lon="6.229">
        <ele>940.1</ele>
        <time>2018-09-23T12:13:42Z</time>
      </trkpt>
      <trkpt lat="43.94089" lon="6.22888">
        <ele>941.3</ele>
        <time>2018-09-23T12:13:56Z</time>
      </trkpt>
      <trkpt lat="43.94096" lon="6.22878">
        <ele>942</ele>
        <time>2018-09-23T12:14:07Z</time>
      </trkpt>
      <trkpt lat="43.94104" lon="6.22871">
        <ele>942.5</ele>
        <time>2018-09-23T12:14:14Z</time>
      </trkpt>
      <trkpt lat="43.94113" lon="6.22862">
        <ele>943.5</ele>
        <time>2018-09-23T12:14:25Z</time>
      </trkpt>
      <trkpt lat="43.94121" lon="6.22857">
        <ele>944.1</ele>
        <time>2018-09-23T12:14:31Z</time>
      </trkpt>
      <trkpt lat="43.9413" lon="6.22851">
        <ele>945.1</ele>
        <time>2018-09-23T12:14:42Z</time>
      </trkpt>
      <trkpt lat="43.94138" lon="6.22845">
        <ele>946.4</ele>
        <time>2018-09-23T12:15:02Z</time>
      </trkpt>
      <trkpt lat="43.94146" lon="6.22837">
        <ele>947.1</ele>
        <time>2018-09-23T12:15:18Z</time>
      </trkpt>
      <trkpt lat="43.94154" lon="6.2283">
        <ele>947.9</ele>
        <time>2018-09-23T12:15:29Z</time>
      </trkpt>
      <trkpt lat="43.94163" lon="6.22825">
        <ele>948.7</ele>
        <time>2018-09-23T12:15:41Z</time>
      </trkpt>
      <trkpt lat="43.94171" lon="6.22818">
        <ele>949.3</ele>
        <time>2018-09-23T12:15:52Z</time>
      </trkpt>
      <trkpt lat="43.9418" lon="6.22813">
        <ele>950.6</ele>
        <time>2018-09-23T12:16:12Z</time>
      </trkpt>
      <trkpt lat="43.94188" lon="6.22809">
        <ele>951.4</ele>
        <time>2018-09-23T12:16:26Z</time>
      </trkpt>
      <trkpt lat="43.94197" lon="6.22803">
        <ele>952.3</ele>
        <time>2018-09-23T12:16:39Z</time>
      </trkpt>
      <trkpt lat="43.94205" lon="6.22799">
        <ele>953.2</ele>
        <time>2018-09-23T12:16:49Z</time>
      </trkpt>
      <trkpt lat="43.94213" lon="6.22794">
        <ele>954</ele>
        <time>2018-09-23T12:16:59Z</time>
      </trkpt>
      <trkpt lat="43.94223" lon="6.22789">
        <ele>954.8</ele>
        <time>2018-09-23T12:17:10Z</time>
      </trkpt>
      <trkpt lat="43.94233" lon="6.22786">
        <ele>955.2</ele>
        <time>2018-09-23T12:17:17Z</time>
      </trkpt>
      <trkpt lat="43.94242" lon="6.22781">
        <ele>956.4</ele>
        <time>2018-09-23T12:17:33Z</time>
      </trkpt>
      <trkpt lat="43.94252" lon="6.22776">
        <ele>957</ele>
        <time>2018-09-23T12:17:43Z</time>
      </trkpt>
      <trkpt lat="43.94261" lon="6.22772">
        <ele>957.8</ele>
        <time>2018-09-23T12:17:54Z</time>
      </trkpt>
      <trkpt lat="43.9427" lon="6.22768">
        <ele>958.4</ele>
        <time>2018-09-23T12:18:03Z</time>
      </trkpt>
      <trkpt lat="43.94279" lon="6.22764">
        <ele>959</ele>
        <time>2018-09-23T12:18:12Z</time>
      </trkpt>
      <trkpt lat="43.94288" lon="6.22762">
        <ele>960.1</ele>
        <time>2018-09-23T12:18:24Z</time>
      </trkpt>
      <trkpt lat="43.94297" lon="6.22758">
        <ele>960.8</ele>
        <time>2018-09-23T12:18:34Z</time>
      </trkpt>
      <trkpt lat="43.94306" lon="6.22758">
        <ele>961.4</ele>
        <time>2018-09-23T12:18:43Z</time>
      </trkpt>
      <trkpt lat="43.94315" lon="6.22755">
        <ele>962</ele>
        <time>2018-09-23T12:18:53Z</time>
      </trkpt>
      <trkpt lat="43.94323" lon="6.22749">
        <ele>962.9</ele>
        <time>2018-09-23T12:19:10Z</time>
      </trkpt>
      <trkpt lat="43.94333" lon="6.22743">
        <ele>964</ele>
        <time>2018-09-23T12:19:27Z</time>
      </trkpt>
      <trkpt lat="43.94351" lon="6.22741">
        <ele>965</ele>
        <time>2018-09-23T12:21:16Z</time>
      </trkpt>
      <trkpt lat="43.94334" lon="6.22731">
        <ele>965</ele>
        <time>2018-09-23T12:33:36Z</time>
      </trkpt>
      <trkpt lat="43.94327" lon="6.22722">
        <ele>965.6</ele>
        <time>2018-09-23T12:33:46Z</time>
      </trkpt>
      <trkpt lat="43.94321" lon="6.22712">
        <ele>965.7</ele>
        <time>2018-09-23T12:33:56Z</time>
      </trkpt>
      <trkpt lat="43.94315" lon="6.22702">
        <ele>965.7</ele>
        <time>2018-09-23T12:34:05Z</time>
      </trkpt>
      <trkpt lat="43.94308" lon="6.22696">
        <ele>965.8</ele>
        <time>2018-09-23T12:34:15Z</time>
      </trkpt>
      <trkpt lat="43.94298" lon="6.22695">
        <ele>966.1</ele>
        <time>2018-09-23T12:34:27Z</time>
      </trkpt>
      <trkpt lat="43.94289" lon="6.2269">
        <ele>966.4</ele>
        <time>2018-09-23T12:34:40Z</time>
      </trkpt>
      <trkpt lat="43.94282" lon="6.22682">
        <ele>966.8</ele>
        <time>2018-09-23T12:34:53Z</time>
      </trkpt>
      <trkpt lat="43.94277" lon="6.2267">
        <ele>967</ele>
        <time>2018-09-23T12:35:02Z</time>
      </trkpt>
      <trkpt lat="43.94271" lon="6.22659">
        <ele>967.2</ele>
        <time>2018-09-23T12:35:12Z</time>
      </trkpt>
      <trkpt lat="43.94262" lon="6.22659">
        <ele>967.4</ele>
        <time>2018-09-23T12:35:29Z</time>
      </trkpt>
      <trkpt lat="43.94254" lon="6.22654">
        <ele>967.4</ele>
        <time>2018-09-23T12:35:41Z</time>
      </trkpt>
      <trkpt lat="43.94243" lon="6.22653">
        <ele>967.4</ele>
        <time>2018-09-23T12:35:59Z</time>
      </trkpt>
      <trkpt lat="43.94237" lon="6.22644">
        <ele>967.2</ele>
        <time>2018-09-23T12:36:20Z</time>
      </trkpt>
      <trkpt lat="43.9423" lon="6.22635">
        <ele>966.9</ele>
        <time>2018-09-23T12:36:33Z</time>
      </trkpt>
      <trkpt lat="43.94222" lon="6.22628">
        <ele>966.4</ele>
        <time>2018-09-23T12:36:44Z</time>
      </trkpt>
      <trkpt lat="43.94214" lon="6.22622">
        <ele>966.1</ele>
        <time>2018-09-23T12:36:57Z</time>
      </trkpt>
      <trkpt lat="43.94205" lon="6.22617">
        <ele>965.9</ele>
        <time>2018-09-23T12:37:08Z</time>
      </trkpt>
      <trkpt lat="43.94196" lon="6.22614">
        <ele>965.7</ele>
        <time>2018-09-23T12:37:18Z</time>
      </trkpt>
      <trkpt lat="43.94187" lon="6.22611">
        <ele>965.4</ele>
        <time>2018-09-23T12:37:44Z</time>
      </trkpt>
      <trkpt lat="43.94186" lon="6.22597">
        <ele>965.2</ele>
        <time>2018-09-23T12:37:53Z</time>
      </trkpt>
      <trkpt lat="43.94184" lon="6.22584">
        <ele>964.9</ele>
        <time>2018-09-23T12:38:03Z</time>
      </trkpt>
      <trkpt lat="43.94178" lon="6.22574">
        <ele>964.6</ele>
        <time>2018-09-23T12:38:13Z</time>
      </trkpt>
      <trkpt lat="43.94173" lon="6.22562">
        <ele>964.3</ele>
        <time>2018-09-23T12:38:26Z</time>
      </trkpt>
      <trkpt lat="43.9417" lon="6.2255">
        <ele>963.8</ele>
        <time>2018-09-23T12:39:16Z</time>
      </trkpt>
      <trkpt lat="43.94165" lon="6.22539">
        <ele>963.6</ele>
        <time>2018-09-23T12:39:26Z</time>
      </trkpt>
      <trkpt lat="43.94158" lon="6.2253">
        <ele>963.5</ele>
        <time>2018-09-23T12:39:36Z</time>
      </trkpt>
      <trkpt lat="43.94152" lon="6.22521">
        <ele>963.4</ele>
        <time>2018-09-23T12:39:49Z</time>
      </trkpt>
      <trkpt lat="43.94154" lon="6.22507">
        <ele>963.3</ele>
        <time>2018-09-23T12:39:57Z</time>
      </trkpt>
      <trkpt lat="43.94153" lon="6.22494">
        <ele>963</ele>
        <time>2018-09-23T12:40:06Z</time>
      </trkpt>
      <trkpt lat="43.94157" lon="6.22481">
        <ele>962.8</ele>
        <time>2018-09-23T12:40:14Z</time>
      </trkpt>
      <trkpt lat="43.94164" lon="6.22471">
        <ele>962.6</ele>
        <time>2018-09-23T12:40:23Z</time>
      </trkpt>
      <trkpt lat="43.94155" lon="6.22464">
        <ele>961.5</ele>
        <time>2018-09-23T12:40:47Z</time>
      </trkpt>
      <trkpt lat="43.94147" lon="6.22456">
        <ele>961.3</ele>
        <time>2018-09-23T12:40:56Z</time>
      </trkpt>
      <trkpt lat="43.9414" lon="6.22446">
        <ele>961</ele>
        <time>2018-09-23T12:41:06Z</time>
      </trkpt>
      <trkpt lat="43.94139" lon="6.22434">
        <ele>960.8</ele>
        <time>2018-09-23T12:41:17Z</time>
      </trkpt>
      <trkpt lat="43.94142" lon="6.22422">
        <ele>960.6</ele>
        <time>2018-09-23T12:41:25Z</time>
      </trkpt>
      <trkpt lat="43.94143" lon="6.22409">
        <ele>960.1</ele>
        <time>2018-09-23T12:41:37Z</time>
      </trkpt>
      <trkpt lat="43.94141" lon="6.22395">
        <ele>959.9</ele>
        <time>2018-09-23T12:41:48Z</time>
      </trkpt>
      <trkpt lat="43.94142" lon="6.22381">
        <ele>959.7</ele>
        <time>2018-09-23T12:41:59Z</time>
      </trkpt>
      <trkpt lat="43.94142" lon="6.22369">
        <ele>959.5</ele>
        <time>2018-09-23T12:42:09Z</time>
      </trkpt>
      <trkpt lat="43.94137" lon="6.22357">
        <ele>959.1</ele>
        <time>2018-09-23T12:42:19Z</time>
      </trkpt>
      <trkpt lat="43.94132" lon="6.22346">
        <ele>958.8</ele>
        <time>2018-09-23T12:42:32Z</time>
      </trkpt>
      <trkpt lat="43.94129" lon="6.22334">
        <ele>958.6</ele>
        <time>2018-09-23T12:42:40Z</time>
      </trkpt>
      <trkpt lat="43.94126" lon="6.22322">
        <ele>958.4</ele>
        <time>2018-09-23T12:42:52Z</time>
      </trkpt>
      <trkpt lat="43.94122" lon="6.22309">
        <ele>958.2</ele>
        <time>2018-09-23T12:42:59Z</time>
      </trkpt>
      <trkpt lat="43.9412" lon="6.22297">
        <ele>958</ele>
        <time>2018-09-23T12:43:08Z</time>
      </trkpt>
      <trkpt lat="43.94112" lon="6.22291">
        <ele>957.8</ele>
        <time>2018-09-23T12:43:19Z</time>
      </trkpt>
      <trkpt lat="43.94103" lon="6.22284">
        <ele>957.6</ele>
        <time>2018-09-23T12:43:28Z</time>
      </trkpt>
      <trkpt lat="43.94098" lon="6.22271">
        <ele>957.3</ele>
        <time>2018-09-23T12:43:37Z</time>
      </trkpt>
      <trkpt lat="43.94097" lon="6.22259">
        <ele>956.8</ele>
        <time>2018-09-23T12:43:45Z</time>
      </trkpt>
      <trkpt lat="43.94092" lon="6.22249">
        <ele>956.2</ele>
        <time>2018-09-23T12:43:55Z</time>
      </trkpt>
      <trkpt lat="43.94082" lon="6.22249">
        <ele>955.2</ele>
        <time>2018-09-23T12:44:11Z</time>
      </trkpt>
      <trkpt lat="43.94073" lon="6.22242">
        <ele>954.8</ele>
        <time>2018-09-23T12:44:18Z</time>
      </trkpt>
      <trkpt lat="43.94063" lon="6.22242">
        <ele>954</ele>
        <time>2018-09-23T12:44:30Z</time>
      </trkpt>
      <trkpt lat="43.94054" lon="6.22235">
        <ele>953.6</ele>
        <time>2018-09-23T12:44:36Z</time>
      </trkpt>
      <trkpt lat="43.94052" lon="6.22222">
        <ele>953.1</ele>
        <time>2018-09-23T12:44:46Z</time>
      </trkpt>
      <trkpt lat="43.94043" lon="6.22216">
        <ele>951.9</ele>
        <time>2018-09-23T12:45:00Z</time>
      </trkpt>
      <trkpt lat="43.94034" lon="6.22212">
        <ele>951.2</ele>
        <time>2018-09-23T12:45:10Z</time>
      </trkpt>
      <trkpt lat="43.94026" lon="6.22207">
        <ele>950.6</ele>
        <time>2018-09-23T12:45:19Z</time>
      </trkpt>
      <trkpt lat="43.94019" lon="6.22197">
        <ele>950</ele>
        <time>2018-09-23T12:45:29Z</time>
      </trkpt>
      <trkpt lat="43.94018" lon="6.22185">
        <ele>949.2</ele>
        <time>2018-09-23T12:45:43Z</time>
      </trkpt>
      <trkpt lat="43.94014" lon="6.22173">
        <ele>948.3</ele>
        <time>2018-09-23T12:45:55Z</time>
      </trkpt>
      <trkpt lat="43.94008" lon="6.22162">
        <ele>947.6</ele>
        <time>2018-09-23T12:46:04Z</time>
      </trkpt>
      <trkpt lat="43.94008" lon="6.22149">
        <ele>947.1</ele>
        <time>2018-09-23T12:46:12Z</time>
      </trkpt>
      <trkpt lat="43.9401" lon="6.22137">
        <ele>946.1</ele>
        <time>2018-09-23T12:46:23Z</time>
      </trkpt>
      <trkpt lat="43.94007" lon="6.22125">
        <ele>945.3</ele>
        <time>2018-09-23T12:46:32Z</time>
      </trkpt>
      <trkpt lat="43.94006" lon="6.22112">
        <ele>944.4</ele>
        <time>2018-09-23T12:46:45Z</time>
      </trkpt>
      <trkpt lat="43.94008" lon="6.22098">
        <ele>943.6</ele>
        <time>2018-09-23T12:46:54Z</time>
      </trkpt>
      <trkpt lat="43.94003" lon="6.22086">
        <ele>942.9</ele>
        <time>2018-09-23T12:47:03Z</time>
      </trkpt>
      <trkpt lat="43.93997" lon="6.22077">
        <ele>942.1</ele>
        <time>2018-09-23T12:47:12Z</time>
      </trkpt>
      <trkpt lat="43.93998" lon="6.22064">
        <ele>941.2</ele>
        <time>2018-09-23T12:47:23Z</time>
      </trkpt>
      <trkpt lat="43.94002" lon="6.22052">
        <ele>940.3</ele>
        <time>2018-09-23T12:47:32Z</time>
      </trkpt>
      <trkpt lat="43.94005" lon="6.22038">
        <ele>939.3</ele>
        <time>2018-09-23T12:47:41Z</time>
      </trkpt>
      <trkpt lat="43.94007" lon="6.22025">
        <ele>938.4</ele>
        <time>2018-09-23T12:47:51Z</time>
      </trkpt>
      <trkpt lat="43.94007" lon="6.22012">
        <ele>937.5</ele>
        <time>2018-09-23T12:48:01Z</time>
      </trkpt>
      <trkpt lat="43.94009" lon="6.22">
        <ele>936.5</ele>
        <time>2018-09-23T12:48:13Z</time>
      </trkpt>
      <trkpt lat="43.94007" lon="6.21988">
        <ele>935.6</ele>
        <time>2018-09-23T12:48:24Z</time>
      </trkpt>
      <trkpt lat="43.94007" lon="6.21974">
        <ele>934.9</ele>
        <time>2018-09-23T12:48:35Z</time>
      </trkpt>
      <trkpt lat="43.94006" lon="6.21961">
        <ele>934</ele>
        <time>2018-09-23T12:48:47Z</time>
      </trkpt>
      <trkpt lat="43.94006" lon="6.21948">
        <ele>933</ele>
        <time>2018-09-23T12:48:58Z</time>
      </trkpt>
      <trkpt lat="43.94006" lon="6.21934">
        <ele>931.9</ele>
        <time>2018-09-23T12:49:12Z</time>
      </trkpt>
      <trkpt lat="43.94007" lon="6.21922">
        <ele>931.3</ele>
        <time>2018-09-23T12:49:21Z</time>
      </trkpt>
      <trkpt lat="43.94007" lon="6.21909">
        <ele>930.5</ele>
        <time>2018-09-23T12:49:29Z</time>
      </trkpt>
      <trkpt lat="43.94008" lon="6.21896">
        <ele>929.4</ele>
        <time>2018-09-23T12:49:41Z</time>
      </trkpt>
      <trkpt lat="43.94007" lon="6.21882">
        <ele>928.1</ele>
        <time>2018-09-23T12:50:13Z</time>
      </trkpt>
      <trkpt lat="43.94005" lon="6.21869">
        <ele>927.8</ele>
        <time>2018-09-23T12:50:23Z</time>
      </trkpt>
      <trkpt lat="43.94002" lon="6.21857">
        <ele>927</ele>
        <time>2018-09-23T12:50:34Z</time>
      </trkpt>
      <trkpt lat="43.94001" lon="6.21844">
        <ele>926.2</ele>
        <time>2018-09-23T12:50:46Z</time>
      </trkpt>
      <trkpt lat="43.94002" lon="6.21831">
        <ele>925.5</ele>
        <time>2018-09-23T12:50:57Z</time>
      </trkpt>
      <trkpt lat="43.94" lon="6.21818">
        <ele>924.8</ele>
        <time>2018-09-23T12:51:05Z</time>
      </trkpt>
      <trkpt lat="43.93998" lon="6.21806">
        <ele>924</ele>
        <time>2018-09-23T12:51:15Z</time>
      </trkpt>
      <trkpt lat="43.93995" lon="6.21793">
        <ele>923.2</ele>
        <time>2018-09-23T12:51:24Z</time>
      </trkpt>
      <trkpt lat="43.93993" lon="6.21781">
        <ele>922.6</ele>
        <time>2018-09-23T12:51:32Z</time>
      </trkpt>
      <trkpt lat="43.93987" lon="6.21771">
        <ele>921.8</ele>
        <time>2018-09-23T12:51:43Z</time>
      </trkpt>
      <trkpt lat="43.93987" lon="6.21758">
        <ele>921.4</ele>
        <time>2018-09-23T12:51:51Z</time>
      </trkpt>
      <trkpt lat="43.93985" lon="6.21746">
        <ele>920.5</ele>
        <time>2018-09-23T12:52:00Z</time>
      </trkpt>
      <trkpt lat="43.93984" lon="6.21732">
        <ele>918.7</ele>
        <time>2018-09-23T12:52:19Z</time>
      </trkpt>
      <trkpt lat="43.93983" lon="6.21718">
        <ele>918</ele>
        <time>2018-09-23T12:52:26Z</time>
      </trkpt>
      <trkpt lat="43.93982" lon="6.21705">
        <ele>917.6</ele>
        <time>2018-09-23T12:52:31Z</time>
      </trkpt>
      <trkpt lat="43.9398" lon="6.2169">
        <ele>917.1</ele>
        <time>2018-09-23T12:52:38Z</time>
      </trkpt>
      <trkpt lat="43.93981" lon="6.21677">
        <ele>916.5</ele>
        <time>2018-09-23T12:52:45Z</time>
      </trkpt>
      <trkpt lat="43.93979" lon="6.21664">
        <ele>915.8</ele>
        <time>2018-09-23T12:52:53Z</time>
      </trkpt>
      <trkpt lat="43.93976" lon="6.21652">
        <ele>915.2</ele>
        <time>2018-09-23T12:52:59Z</time>
      </trkpt>
      <trkpt lat="43.93972" lon="6.2164">
        <ele>914.5</ele>
        <time>2018-09-23T12:53:06Z</time>
      </trkpt>
      <trkpt lat="43.93971" lon="6.21628">
        <ele>913.6</ele>
        <time>2018-09-23T12:53:15Z</time>
      </trkpt>
      <trkpt lat="43.93969" lon="6.21615">
        <ele>913</ele>
        <time>2018-09-23T12:53:22Z</time>
      </trkpt>
      <trkpt lat="43.93969" lon="6.21602">
        <ele>912.2</ele>
        <time>2018-09-23T12:53:30Z</time>
      </trkpt>
      <trkpt lat="43.93968" lon="6.21588">
        <ele>911.5</ele>
        <time>2018-09-23T12:53:37Z</time>
      </trkpt>
      <trkpt lat="43.93966" lon="6.21573">
        <ele>910.7</ele>
        <time>2018-09-23T12:53:46Z</time>
      </trkpt>
      <trkpt lat="43.93965" lon="6.2156">
        <ele>910.3</ele>
        <time>2018-09-23T12:53:52Z</time>
      </trkpt>
      <trkpt lat="43.93964" lon="6.21546">
        <ele>909.8</ele>
        <time>2018-09-23T12:54:02Z</time>
      </trkpt>
      <trkpt lat="43.9396" lon="6.21533">
        <ele>908.9</ele>
        <time>2018-09-23T12:54:14Z</time>
      </trkpt>
      <trkpt lat="43.93957" lon="6.21521">
        <ele>908.2</ele>
        <time>2018-09-23T12:54:21Z</time>
      </trkpt>
      <trkpt lat="43.93955" lon="6.21507">
        <ele>907.2</ele>
        <time>2018-09-23T12:54:33Z</time>
      </trkpt>
      <trkpt lat="43.93953" lon="6.21495">
        <ele>906.5</ele>
        <time>2018-09-23T12:54:42Z</time>
      </trkpt>
      <trkpt lat="43.93949" lon="6.21483">
        <ele>905.7</ele>
        <time>2018-09-23T12:54:53Z</time>
      </trkpt>
      <trkpt lat="43.93943" lon="6.21473">
        <ele>904.7</ele>
        <time>2018-09-23T12:55:04Z</time>
      </trkpt>
      <trkpt lat="43.93938" lon="6.21462">
        <ele>904</ele>
        <time>2018-09-23T12:55:14Z</time>
      </trkpt>
      <trkpt lat="43.93933" lon="6.2145">
        <ele>903.1</ele>
        <time>2018-09-23T12:55:24Z</time>
      </trkpt>
      <trkpt lat="43.93927" lon="6.2144">
        <ele>902.6</ele>
        <time>2018-09-23T12:55:32Z</time>
      </trkpt>
      <trkpt lat="43.93919" lon="6.21434">
        <ele>902</ele>
        <time>2018-09-23T12:55:39Z</time>
      </trkpt>
      <trkpt lat="43.93914" lon="6.21424">
        <ele>901.3</ele>
        <time>2018-09-23T12:55:45Z</time>
      </trkpt>
      <trkpt lat="43.93908" lon="6.21414">
        <ele>900.4</ele>
        <time>2018-09-23T12:55:56Z</time>
      </trkpt>
      <trkpt lat="43.93901" lon="6.21404">
        <ele>899.6</ele>
        <time>2018-09-23T12:56:07Z</time>
      </trkpt>
      <trkpt lat="43.93893" lon="6.21396">
        <ele>898.6</ele>
        <time>2018-09-23T12:56:18Z</time>
      </trkpt>
      <trkpt lat="43.93886" lon="6.21388">
        <ele>898</ele>
        <time>2018-09-23T12:56:26Z</time>
      </trkpt>
      <trkpt lat="43.93877" lon="6.21385">
        <ele>897.3</ele>
        <time>2018-09-23T12:56:36Z</time>
      </trkpt>
      <trkpt lat="43.93868" lon="6.21378">
        <ele>896.4</ele>
        <time>2018-09-23T12:56:47Z</time>
      </trkpt>
      <trkpt lat="43.93861" lon="6.21368">
        <ele>895.6</ele>
        <time>2018-09-23T12:56:55Z</time>
      </trkpt>
      <trkpt lat="43.93854" lon="6.21359">
        <ele>895</ele>
        <time>2018-09-23T12:57:02Z</time>
      </trkpt>
      <trkpt lat="43.93846" lon="6.21353">
        <ele>894</ele>
        <time>2018-09-23T12:57:13Z</time>
      </trkpt>
      <trkpt lat="43.93838" lon="6.21346">
        <ele>893.2</ele>
        <time>2018-09-23T12:57:23Z</time>
      </trkpt>
      <trkpt lat="43.9383" lon="6.21339">
        <ele>892.7</ele>
        <time>2018-09-23T12:57:30Z</time>
      </trkpt>
      <trkpt lat="43.93822" lon="6.21335">
        <ele>892.1</ele>
        <time>2018-09-23T12:57:38Z</time>
      </trkpt>
      <trkpt lat="43.93814" lon="6.21328">
        <ele>891.1</ele>
        <time>2018-09-23T12:57:48Z</time>
      </trkpt>
      <trkpt lat="43.93806" lon="6.21321">
        <ele>890.4</ele>
        <time>2018-09-23T12:57:56Z</time>
      </trkpt>
      <trkpt lat="43.93798" lon="6.21314">
        <ele>889.6</ele>
        <time>2018-09-23T12:58:05Z</time>
      </trkpt>
      <trkpt lat="43.93792" lon="6.21305">
        <ele>889.1</ele>
        <time>2018-09-23T12:58:11Z</time>
      </trkpt>
      <trkpt lat="43.93786" lon="6.21295">
        <ele>888.2</ele>
        <time>2018-09-23T12:58:21Z</time>
      </trkpt>
      <trkpt lat="43.93781" lon="6.21284">
        <ele>887.3</ele>
        <time>2018-09-23T12:58:30Z</time>
      </trkpt>
      <trkpt lat="43.93773" lon="6.21277">
        <ele>886.5</ele>
        <time>2018-09-23T12:58:38Z</time>
      </trkpt>
      <trkpt lat="43.93765" lon="6.21269">
        <ele>885.4</ele>
        <time>2018-09-23T12:58:48Z</time>
      </trkpt>
      <trkpt lat="43.93757" lon="6.21264">
        <ele>884.5</ele>
        <time>2018-09-23T12:58:58Z</time>
      </trkpt>
      <trkpt lat="43.93748" lon="6.21258">
        <ele>883.7</ele>
        <time>2018-09-23T12:59:07Z</time>
      </trkpt>
      <trkpt lat="43.93739" lon="6.21256">
        <ele>882.6</ele>
        <time>2018-09-23T12:59:18Z</time>
      </trkpt>
      <trkpt lat="43.93729" lon="6.21253">
        <ele>881.7</ele>
        <time>2018-09-23T12:59:27Z</time>
      </trkpt>
      <trkpt lat="43.9372" lon="6.21253">
        <ele>880.8</ele>
        <time>2018-09-23T12:59:37Z</time>
      </trkpt>
      <trkpt lat="43.93711" lon="6.21252">
        <ele>880</ele>
        <time>2018-09-23T12:59:46Z</time>
      </trkpt>
      <trkpt lat="43.93702" lon="6.21254">
        <ele>879.1</ele>
        <time>2018-09-23T12:59:55Z</time>
      </trkpt>
      <trkpt lat="43.93692" lon="6.21257">
        <ele>878.1</ele>
        <time>2018-09-23T13:00:06Z</time>
      </trkpt>
      <trkpt lat="43.93683" lon="6.2126">
        <ele>877.2</ele>
        <time>2018-09-23T13:00:17Z</time>
      </trkpt>
      <trkpt lat="43.93674" lon="6.21264">
        <ele>876.5</ele>
        <time>2018-09-23T13:00:25Z</time>
      </trkpt>
      <trkpt lat="43.93664" lon="6.21265">
        <ele>875.7</ele>
        <time>2018-09-23T13:00:36Z</time>
      </trkpt>
      <trkpt lat="43.93655" lon="6.21263">
        <ele>874.9</ele>
        <time>2018-09-23T13:00:49Z</time>
      </trkpt>
      <trkpt lat="43.93646" lon="6.21263">
        <ele>874.3</ele>
        <time>2018-09-23T13:01:00Z</time>
      </trkpt>
      <trkpt lat="43.93637" lon="6.21266">
        <ele>873.9</ele>
        <time>2018-09-23T13:01:08Z</time>
      </trkpt>
      <trkpt lat="43.93628" lon="6.21265">
        <ele>873.3</ele>
        <time>2018-09-23T13:01:17Z</time>
      </trkpt>
      <trkpt lat="43.93619" lon="6.21266">
        <ele>872.6</ele>
        <time>2018-09-23T13:01:26Z</time>
      </trkpt>
      <trkpt lat="43.9361" lon="6.21265">
        <ele>871.4</ele>
        <time>2018-09-23T13:01:37Z</time>
      </trkpt>
      <trkpt lat="43.936" lon="6.21266">
        <ele>870.4</ele>
        <time>2018-09-23T13:01:47Z</time>
      </trkpt>
      <trkpt lat="43.93591" lon="6.21268">
        <ele>869.4</ele>
        <time>2018-09-23T13:01:57Z</time>
      </trkpt>
      <trkpt lat="43.93581" lon="6.21272">
        <ele>868.7</ele>
        <time>2018-09-23T13:02:06Z</time>
      </trkpt>
      <trkpt lat="43.93571" lon="6.21273">
        <ele>867.7</ele>
        <time>2018-09-23T13:02:16Z</time>
      </trkpt>
      <trkpt lat="43.93561" lon="6.21272">
        <ele>867</ele>
        <time>2018-09-23T13:02:24Z</time>
      </trkpt>
      <trkpt lat="43.93553" lon="6.21265">
        <ele>866.1</ele>
        <time>2018-09-23T13:02:34Z</time>
      </trkpt>
      <trkpt lat="43.93545" lon="6.21257">
        <ele>865.4</ele>
        <time>2018-09-23T13:02:42Z</time>
      </trkpt>
      <trkpt lat="43.93538" lon="6.21249">
        <ele>864.4</ele>
        <time>2018-09-23T13:02:53Z</time>
      </trkpt>
      <trkpt lat="43.93529" lon="6.21244">
        <ele>863.6</ele>
        <time>2018-09-23T13:03:04Z</time>
      </trkpt>
      <trkpt lat="43.9352" lon="6.21242">
        <ele>862.7</ele>
        <time>2018-09-23T13:03:16Z</time>
      </trkpt>
      <trkpt lat="43.93511" lon="6.21239">
        <ele>860.8</ele>
        <time>2018-09-23T13:03:41Z</time>
      </trkpt>
      <trkpt lat="43.93513" lon="6.21226">
        <ele>861</ele>
        <time>2018-09-23T13:07:24Z</time>
      </trkpt>
      <trkpt lat="43.93523" lon="6.21225">
        <ele>861.2</ele>
        <time>2018-09-23T13:07:45Z</time>
      </trkpt>
      <trkpt lat="43.93533" lon="6.21224">
        <ele>861.3</ele>
        <time>2018-09-23T13:07:54Z</time>
      </trkpt>
      <trkpt lat="43.93542" lon="6.21228">
        <ele>861.3</ele>
        <time>2018-09-23T13:08:06Z</time>
      </trkpt>
      <trkpt lat="43.93551" lon="6.21233">
        <ele>861</ele>
        <time>2018-09-23T13:08:17Z</time>
      </trkpt>
      <trkpt lat="43.9356" lon="6.21236">
        <ele>860.4</ele>
        <time>2018-09-23T13:08:26Z</time>
      </trkpt>
      <trkpt lat="43.93569" lon="6.21231">
        <ele>859.2</ele>
        <time>2018-09-23T13:08:37Z</time>
      </trkpt>
      <trkpt lat="43.93578" lon="6.21229">
        <ele>857.9</ele>
        <time>2018-09-23T13:08:47Z</time>
      </trkpt>
      <trkpt lat="43.93585" lon="6.2122">
        <ele>856.5</ele>
        <time>2018-09-23T13:08:58Z</time>
      </trkpt>
      <trkpt lat="43.93594" lon="6.21214">
        <ele>855.2</ele>
        <time>2018-09-23T13:09:07Z</time>
      </trkpt>
      <trkpt lat="43.93601" lon="6.21206">
        <ele>854.1</ele>
        <time>2018-09-23T13:09:17Z</time>
      </trkpt>
      <trkpt lat="43.93607" lon="6.21194">
        <ele>852.8</ele>
        <time>2018-09-23T13:09:27Z</time>
      </trkpt>
      <trkpt lat="43.93613" lon="6.21185">
        <ele>851.6</ele>
        <time>2018-09-23T13:09:37Z</time>
      </trkpt>
      <trkpt lat="43.93617" lon="6.21173">
        <ele>850.5</ele>
        <time>2018-09-23T13:09:46Z</time>
      </trkpt>
      <trkpt lat="43.93623" lon="6.21164">
        <ele>849.5</ele>
        <time>2018-09-23T13:09:55Z</time>
      </trkpt>
      <trkpt lat="43.9363" lon="6.21154">
        <ele>848.6</ele>
        <time>2018-09-23T13:10:04Z</time>
      </trkpt>
      <trkpt lat="43.93637" lon="6.21144">
        <ele>847.7</ele>
        <time>2018-09-23T13:10:13Z</time>
      </trkpt>
      <trkpt lat="43.93644" lon="6.21135">
        <ele>847</ele>
        <time>2018-09-23T13:10:21Z</time>
      </trkpt>
      <trkpt lat="43.93652" lon="6.21126">
        <ele>846</ele>
        <time>2018-09-23T13:10:32Z</time>
      </trkpt>
      <trkpt lat="43.93659" lon="6.21117">
        <ele>845.3</ele>
        <time>2018-09-23T13:10:40Z</time>
      </trkpt>
      <trkpt lat="43.93667" lon="6.2111">
        <ele>844.6</ele>
        <time>2018-09-23T13:10:49Z</time>
      </trkpt>
      <trkpt lat="43.93671" lon="6.21099">
        <ele>842.8</ele>
        <time>2018-09-23T13:11:12Z</time>
      </trkpt>
      <trkpt lat="43.93678" lon="6.21089">
        <ele>842</ele>
        <time>2018-09-23T13:11:23Z</time>
      </trkpt>
      <trkpt lat="43.93681" lon="6.21078">
        <ele>841.3</ele>
        <time>2018-09-23T13:11:31Z</time>
      </trkpt>
      <trkpt lat="43.93684" lon="6.21065">
        <ele>839.9</ele>
        <time>2018-09-23T13:11:44Z</time>
      </trkpt>
      <trkpt lat="43.9368" lon="6.21052">
        <ele>838.2</ele>
        <time>2018-09-23T13:12:00Z</time>
      </trkpt>
      <trkpt lat="43.93674" lon="6.21042">
        <ele>837.6</ele>
        <time>2018-09-23T13:12:12Z</time>
      </trkpt>
      <trkpt lat="43.93668" lon="6.2103">
        <ele>837</ele>
        <time>2018-09-23T13:12:17Z</time>
      </trkpt>
      <trkpt lat="43.93659" lon="6.21029">
        <ele>836.4</ele>
        <time>2018-09-23T13:12:46Z</time>
      </trkpt>
      <trkpt lat="43.93662" lon="6.21035">
        <ele>836.6</ele>
        <time>2018-09-23T13:16:06Z</time>
      </trkpt>
      <trkpt lat="43.93662" lon="6.21036">
        <ele>837.2</ele>
        <time>2018-09-23T13:18:14Z</time>
      </trkpt>
      <trkpt lat="43.93671" lon="6.21041">
        <ele>838.2</ele>
        <time>2018-09-23T13:21:37Z</time>
      </trkpt>
      <trkpt lat="43.93682" lon="6.21045">
        <ele>839.3</ele>
        <time>2018-09-23T13:23:12Z</time>
      </trkpt>
      <trkpt lat="43.93688" lon="6.2105">
        <ele>838.9</ele>
        <time>2018-09-23T13:28:14Z</time>
      </trkpt>
      <trkpt lat="43.93683" lon="6.2106">
        <ele>839.2</ele>
        <time>2018-09-23T13:28:37Z</time>
      </trkpt>
      <trkpt lat="43.93678" lon="6.21072">
        <ele>839.8</ele>
        <time>2018-09-23T13:28:50Z</time>
      </trkpt>
      <trkpt lat="43.93675" lon="6.21084">
        <ele>840.7</ele>
        <time>2018-09-23T13:29:04Z</time>
      </trkpt>
      <trkpt lat="43.93672" lon="6.21096">
        <ele>842.4</ele>
        <time>2018-09-23T13:29:26Z</time>
      </trkpt>
      <trkpt lat="43.93681" lon="6.21099">
        <ele>843.8</ele>
        <time>2018-09-23T13:29:45Z</time>
      </trkpt>
      <trkpt lat="43.9369" lon="6.21099">
        <ele>844.9</ele>
        <time>2018-09-23T13:29:56Z</time>
      </trkpt>
      <trkpt lat="43.937" lon="6.21097">
        <ele>846.2</ele>
        <time>2018-09-23T13:30:11Z</time>
      </trkpt>
      <trkpt lat="43.93709" lon="6.21095">
        <ele>846.7</ele>
        <time>2018-09-23T13:30:22Z</time>
      </trkpt>
      <trkpt lat="43.93719" lon="6.21093">
        <ele>846.9</ele>
        <time>2018-09-23T13:30:33Z</time>
      </trkpt>
      <trkpt lat="43.93728" lon="6.21093">
        <ele>846.9</ele>
        <time>2018-09-23T13:30:42Z</time>
      </trkpt>
      <trkpt lat="43.93738" lon="6.21095">
        <ele>846.9</ele>
        <time>2018-09-23T13:30:52Z</time>
      </trkpt>
      <trkpt lat="43.93748" lon="6.21094">
        <ele>846.9</ele>
        <time>2018-09-23T13:31:01Z</time>
      </trkpt>
      <trkpt lat="43.93757" lon="6.21096">
        <ele>847</ele>
        <time>2018-09-23T13:31:10Z</time>
      </trkpt>
      <trkpt lat="43.93767" lon="6.21098">
        <ele>847.1</ele>
        <time>2018-09-23T13:31:20Z</time>
      </trkpt>
      <trkpt lat="43.93776" lon="6.21102">
        <ele>847.3</ele>
        <time>2018-09-23T13:31:29Z</time>
      </trkpt>
      <trkpt lat="43.93785" lon="6.21108">
        <ele>847.5</ele>
        <time>2018-09-23T13:31:37Z</time>
      </trkpt>
      <trkpt lat="43.93793" lon="6.21116">
        <ele>847.8</ele>
        <time>2018-09-23T13:31:48Z</time>
      </trkpt>
      <trkpt lat="43.93801" lon="6.21123">
        <ele>847.8</ele>
        <time>2018-09-23T13:31:57Z</time>
      </trkpt>
      <trkpt lat="43.9381" lon="6.21129">
        <ele>847.8</ele>
        <time>2018-09-23T13:32:05Z</time>
      </trkpt>
      <trkpt lat="43.93818" lon="6.21134">
        <ele>847.7</ele>
        <time>2018-09-23T13:32:12Z</time>
      </trkpt>
      <trkpt lat="43.93828" lon="6.21138">
        <ele>847.5</ele>
        <time>2018-09-23T13:32:19Z</time>
      </trkpt>
      <trkpt lat="43.93836" lon="6.21141">
        <ele>847.2</ele>
        <time>2018-09-23T13:32:26Z</time>
      </trkpt>
      <trkpt lat="43.93845" lon="6.21145">
        <ele>847.1</ele>
        <time>2018-09-23T13:32:32Z</time>
      </trkpt>
      <trkpt lat="43.93854" lon="6.21147">
        <ele>846.9</ele>
        <time>2018-09-23T13:32:40Z</time>
      </trkpt>
      <trkpt lat="43.93863" lon="6.21148">
        <ele>846.7</ele>
        <time>2018-09-23T13:32:49Z</time>
      </trkpt>
      <trkpt lat="43.93873" lon="6.21152">
        <ele>846.6</ele>
        <time>2018-09-23T13:32:59Z</time>
      </trkpt>
      <trkpt lat="43.93882" lon="6.21155">
        <ele>846.7</ele>
        <time>2018-09-23T13:33:06Z</time>
      </trkpt>
      <trkpt lat="43.93891" lon="6.2116">
        <ele>846.9</ele>
        <time>2018-09-23T13:33:13Z</time>
      </trkpt>
      <trkpt lat="43.93901" lon="6.21165">
        <ele>847.3</ele>
        <time>2018-09-23T13:33:22Z</time>
      </trkpt>
      <trkpt lat="43.93908" lon="6.21172">
        <ele>847.4</ele>
        <time>2018-09-23T13:33:31Z</time>
      </trkpt>
      <trkpt lat="43.93917" lon="6.21179">
        <ele>847.6</ele>
        <time>2018-09-23T13:33:41Z</time>
      </trkpt>
      <trkpt lat="43.93923" lon="6.21188">
        <ele>848</ele>
        <time>2018-09-23T13:33:49Z</time>
      </trkpt>
      <trkpt lat="43.93931" lon="6.21195">
        <ele>848.5</ele>
        <time>2018-09-23T13:33:56Z</time>
      </trkpt>
      <trkpt lat="43.93939" lon="6.21203">
        <ele>848.8</ele>
        <time>2018-09-23T13:34:03Z</time>
      </trkpt>
      <trkpt lat="43.93945" lon="6.21213">
        <ele>848.9</ele>
        <time>2018-09-23T13:34:10Z</time>
      </trkpt>
      <trkpt lat="43.93951" lon="6.21223">
        <ele>849</ele>
        <time>2018-09-23T13:34:17Z</time>
      </trkpt>
      <trkpt lat="43.93957" lon="6.21233">
        <ele>848.9</ele>
        <time>2018-09-23T13:34:24Z</time>
      </trkpt>
      <trkpt lat="43.93967" lon="6.21238">
        <ele>848.7</ele>
        <time>2018-09-23T13:34:35Z</time>
      </trkpt>
      <trkpt lat="43.93974" lon="6.21246">
        <ele>848.6</ele>
        <time>2018-09-23T13:34:44Z</time>
      </trkpt>
      <trkpt lat="43.9398" lon="6.21256">
        <ele>848.5</ele>
        <time>2018-09-23T13:34:55Z</time>
      </trkpt>
      <trkpt lat="43.93987" lon="6.21264">
        <ele>848.8</ele>
        <time>2018-09-23T13:35:04Z</time>
      </trkpt>
      <trkpt lat="43.93994" lon="6.21273">
        <ele>849.4</ele>
        <time>2018-09-23T13:35:16Z</time>
      </trkpt>
      <trkpt lat="43.94001" lon="6.21282">
        <ele>849.9</ele>
        <time>2018-09-23T13:35:27Z</time>
      </trkpt>
      <trkpt lat="43.94009" lon="6.21291">
        <ele>850.4</ele>
        <time>2018-09-23T13:35:37Z</time>
      </trkpt>
      <trkpt lat="43.94015" lon="6.21301">
        <ele>851.1</ele>
        <time>2018-09-23T13:35:46Z</time>
      </trkpt>
      <trkpt lat="43.94022" lon="6.21313">
        <ele>851.7</ele>
        <time>2018-09-23T13:35:54Z</time>
      </trkpt>
      <trkpt lat="43.94029" lon="6.21322">
        <ele>852</ele>
        <time>2018-09-23T13:36:01Z</time>
      </trkpt>
      <trkpt lat="43.94036" lon="6.21331">
        <ele>852.2</ele>
        <time>2018-09-23T13:36:09Z</time>
      </trkpt>
      <trkpt lat="43.94043" lon="6.2134">
        <ele>852.3</ele>
        <time>2018-09-23T13:36:18Z</time>
      </trkpt>
      <trkpt lat="43.94052" lon="6.21348">
        <ele>852.3</ele>
        <time>2018-09-23T13:36:28Z</time>
      </trkpt>
      <trkpt lat="43.9406" lon="6.21355">
        <ele>852.5</ele>
        <time>2018-09-23T13:36:38Z</time>
      </trkpt>
      <trkpt lat="43.94067" lon="6.21364">
        <ele>853</ele>
        <time>2018-09-23T13:36:47Z</time>
      </trkpt>
      <trkpt lat="43.94076" lon="6.2137">
        <ele>853.7</ele>
        <time>2018-09-23T13:36:58Z</time>
      </trkpt>
      <trkpt lat="43.94085" lon="6.21375">
        <ele>854.6</ele>
        <time>2018-09-23T13:37:08Z</time>
      </trkpt>
      <trkpt lat="43.94093" lon="6.21382">
        <ele>855.6</ele>
        <time>2018-09-23T13:37:18Z</time>
      </trkpt>
      <trkpt lat="43.94102" lon="6.21387">
        <ele>856.4</ele>
        <time>2018-09-23T13:37:25Z</time>
      </trkpt>
      <trkpt lat="43.94111" lon="6.21393">
        <ele>857.8</ele>
        <time>2018-09-23T13:37:38Z</time>
      </trkpt>
      <trkpt lat="43.94118" lon="6.21402">
        <ele>859.2</ele>
        <time>2018-09-23T13:37:51Z</time>
      </trkpt>
      <trkpt lat="43.94126" lon="6.21411">
        <ele>860.2</ele>
        <time>2018-09-23T13:38:00Z</time>
      </trkpt>
      <trkpt lat="43.94134" lon="6.21419">
        <ele>860.6</ele>
        <time>2018-09-23T13:38:08Z</time>
      </trkpt>
      <trkpt lat="43.94137" lon="6.21431">
        <ele>861</ele>
        <time>2018-09-23T13:38:16Z</time>
      </trkpt>
      <trkpt lat="43.94137" lon="6.21445">
        <ele>861.5</ele>
        <time>2018-09-23T13:38:25Z</time>
      </trkpt>
      <trkpt lat="43.94138" lon="6.21457">
        <ele>862.1</ele>
        <time>2018-09-23T13:38:35Z</time>
      </trkpt>
      <trkpt lat="43.94138" lon="6.2147">
        <ele>862.7</ele>
        <time>2018-09-23T13:38:43Z</time>
      </trkpt>
      <trkpt lat="43.94141" lon="6.21483">
        <ele>863.4</ele>
        <time>2018-09-23T13:38:53Z</time>
      </trkpt>
      <trkpt lat="43.94145" lon="6.21494">
        <ele>864</ele>
        <time>2018-09-23T13:39:02Z</time>
      </trkpt>
      <trkpt lat="43.94149" lon="6.21506">
        <ele>864.8</ele>
        <time>2018-09-23T13:39:13Z</time>
      </trkpt>
      <trkpt lat="43.94152" lon="6.21519">
        <ele>865.4</ele>
        <time>2018-09-23T13:39:21Z</time>
      </trkpt>
      <trkpt lat="43.94153" lon="6.21533">
        <ele>866</ele>
        <time>2018-09-23T13:39:28Z</time>
      </trkpt>
      <trkpt lat="43.94155" lon="6.21546">
        <ele>866.7</ele>
        <time>2018-09-23T13:39:40Z</time>
      </trkpt>
      <trkpt lat="43.94152" lon="6.21558">
        <ele>867.3</ele>
        <time>2018-09-23T13:39:51Z</time>
      </trkpt>
      <trkpt lat="43.94148" lon="6.21571">
        <ele>867.7</ele>
        <time>2018-09-23T13:40:00Z</time>
      </trkpt>
      <trkpt lat="43.94147" lon="6.21584">
        <ele>867.9</ele>
        <time>2018-09-23T13:40:08Z</time>
      </trkpt>
      <trkpt lat="43.94149" lon="6.21597">
        <ele>867.8</ele>
        <time>2018-09-23T13:40:18Z</time>
      </trkpt>
      <trkpt lat="43.94154" lon="6.21608">
        <ele>867.1</ele>
        <time>2018-09-23T13:40:26Z</time>
      </trkpt>
      <trkpt lat="43.94152" lon="6.21621">
        <ele>866.4</ele>
        <time>2018-09-23T13:40:33Z</time>
      </trkpt>
      <trkpt lat="43.94149" lon="6.21633">
        <ele>865.2</ele>
        <time>2018-09-23T13:40:46Z</time>
      </trkpt>
      <trkpt lat="43.94143" lon="6.21643">
        <ele>863.9</ele>
        <time>2018-09-23T13:40:57Z</time>
      </trkpt>
      <trkpt lat="43.94142" lon="6.21657">
        <ele>862.7</ele>
        <time>2018-09-23T13:41:06Z</time>
      </trkpt>
      <trkpt lat="43.94141" lon="6.2167">
        <ele>861.4</ele>
        <time>2018-09-23T13:41:16Z</time>
      </trkpt>
      <trkpt lat="43.94141" lon="6.21683">
        <ele>859.9</ele>
        <time>2018-09-23T13:41:32Z</time>
      </trkpt>
      <trkpt lat="43.94142" lon="6.21695">
        <ele>858.6</ele>
        <time>2018-09-23T13:41:42Z</time>
      </trkpt>
      <trkpt lat="43.94149" lon="6.21686">
        <ele>856.1</ele>
        <time>2018-09-23T13:41:57Z</time>
      </trkpt>
      <trkpt lat="43.94159" lon="6.21694">
        <ele>852.2</ele>
        <time>2018-09-23T13:42:22Z</time>
      </trkpt>
      <trkpt lat="43.9416" lon="6.21707">
        <ele>850.3</ele>
        <time>2018-09-23T13:42:34Z</time>
      </trkpt>
      <trkpt lat="43.94163" lon="6.21719">
        <ele>847.8</ele>
        <time>2018-09-23T13:42:49Z</time>
      </trkpt>
      <trkpt lat="43.94169" lon="6.21729">
        <ele>845</ele>
        <time>2018-09-23T13:43:06Z</time>
      </trkpt>
      <trkpt lat="43.94179" lon="6.21728">
        <ele>843.5</ele>
        <time>2018-09-23T13:43:16Z</time>
      </trkpt>
      <trkpt lat="43.94186" lon="6.21719">
        <ele>841.6</ele>
        <time>2018-09-23T13:43:29Z</time>
      </trkpt>
      <trkpt lat="43.94195" lon="6.21714">
        <ele>839.8</ele>
        <time>2018-09-23T13:43:41Z</time>
      </trkpt>
      <trkpt lat="43.942" lon="6.21703">
        <ele>838.5</ele>
        <time>2018-09-23T13:43:50Z</time>
      </trkpt>
      <trkpt lat="43.94209" lon="6.21708">
        <ele>837.1</ele>
        <time>2018-09-23T13:44:01Z</time>
      </trkpt>
      <trkpt lat="43.94217" lon="6.21704">
        <ele>835.5</ele>
        <time>2018-09-23T13:44:13Z</time>
      </trkpt>
      <trkpt lat="43.94219" lon="6.21691">
        <ele>834.4</ele>
        <time>2018-09-23T13:44:22Z</time>
      </trkpt>
      <trkpt lat="43.94227" lon="6.21699">
        <ele>831.8</ele>
        <time>2018-09-23T13:44:43Z</time>
      </trkpt>
      <trkpt lat="43.94231" lon="6.21711">
        <ele>830.5</ele>
        <time>2018-09-23T13:44:54Z</time>
      </trkpt>
      <trkpt lat="43.94236" lon="6.21724">
        <ele>829.4</ele>
        <time>2018-09-23T13:45:04Z</time>
      </trkpt>
      <trkpt lat="43.94239" lon="6.21736">
        <ele>828</ele>
        <time>2018-09-23T13:45:15Z</time>
      </trkpt>
      <trkpt lat="43.94243" lon="6.21747">
        <ele>826.9</ele>
        <time>2018-09-23T13:45:25Z</time>
      </trkpt>
      <trkpt lat="43.94247" lon="6.21759">
        <ele>825.2</ele>
        <time>2018-09-23T13:45:40Z</time>
      </trkpt>
      <trkpt lat="43.94246" lon="6.21772">
        <ele>823.6</ele>
        <time>2018-09-23T13:45:52Z</time>
      </trkpt>
      <trkpt lat="43.94245" lon="6.21784">
        <ele>822.1</ele>
        <time>2018-09-23T13:46:04Z</time>
      </trkpt>
      <trkpt lat="43.94247" lon="6.21797">
        <ele>819.9</ele>
        <time>2018-09-23T13:46:18Z</time>
      </trkpt>
      <trkpt lat="43.94251" lon="6.21809">
        <ele>818.2</ele>
        <time>2018-09-23T13:46:29Z</time>
      </trkpt>
      <trkpt lat="43.94255" lon="6.21821">
        <ele>816.3</ele>
        <time>2018-09-23T13:46:41Z</time>
      </trkpt>
      <trkpt lat="43.94259" lon="6.21833">
        <ele>814.8</ele>
        <time>2018-09-23T13:46:53Z</time>
      </trkpt>
      <trkpt lat="43.94258" lon="6.21845">
        <ele>813.1</ele>
        <time>2018-09-23T13:47:05Z</time>
      </trkpt>
      <trkpt lat="43.94261" lon="6.21858">
        <ele>811.5</ele>
        <time>2018-09-23T13:47:16Z</time>
      </trkpt>
      <trkpt lat="43.94265" lon="6.2187">
        <ele>809.9</ele>
        <time>2018-09-23T13:47:28Z</time>
      </trkpt>
      <trkpt lat="43.94274" lon="6.21869">
        <ele>806.7</ele>
        <time>2018-09-23T13:47:52Z</time>
      </trkpt>
      <trkpt lat="43.94277" lon="6.21881">
        <ele>803.4</ele>
        <time>2018-09-23T13:48:18Z</time>
      </trkpt>
      <trkpt lat="43.94278" lon="6.21895">
        <ele>802</ele>
        <time>2018-09-23T13:48:32Z</time>
      </trkpt>
      <trkpt lat="43.94282" lon="6.21907">
        <ele>800.9</ele>
        <time>2018-09-23T13:48:41Z</time>
      </trkpt>
      <trkpt lat="43.94288" lon="6.21916">
        <ele>799.6</ele>
        <time>2018-09-23T13:48:54Z</time>
      </trkpt>
      <trkpt lat="43.94295" lon="6.21926">
        <ele>798</ele>
        <time>2018-09-23T13:49:07Z</time>
      </trkpt>
      <trkpt lat="43.94302" lon="6.21935">
        <ele>796.7</ele>
        <time>2018-09-23T13:49:16Z</time>
      </trkpt>
      <trkpt lat="43.94308" lon="6.21947">
        <ele>794.7</ele>
        <time>2018-09-23T13:49:28Z</time>
      </trkpt>
      <trkpt lat="43.94313" lon="6.21957">
        <ele>792.5</ele>
        <time>2018-09-23T13:49:41Z</time>
      </trkpt>
      <trkpt lat="43.94319" lon="6.21967">
        <ele>790.2</ele>
        <time>2018-09-23T13:49:55Z</time>
      </trkpt>
      <trkpt lat="43.94324" lon="6.21979">
        <ele>788</ele>
        <time>2018-09-23T13:50:09Z</time>
      </trkpt>
      <trkpt lat="43.9433" lon="6.21989">
        <ele>785.8</ele>
        <time>2018-09-23T13:50:23Z</time>
      </trkpt>
      <trkpt lat="43.94332" lon="6.22003">
        <ele>784</ele>
        <time>2018-09-23T13:50:34Z</time>
      </trkpt>
      <trkpt lat="43.94335" lon="6.22015">
        <ele>782.4</ele>
        <time>2018-09-23T13:50:44Z</time>
      </trkpt>
      <trkpt lat="43.94341" lon="6.22025">
        <ele>780.4</ele>
        <time>2018-09-23T13:50:56Z</time>
      </trkpt>
      <trkpt lat="43.94347" lon="6.22034">
        <ele>778.2</ele>
        <time>2018-09-23T13:51:09Z</time>
      </trkpt>
      <trkpt lat="43.94353" lon="6.22044">
        <ele>776.2</ele>
        <time>2018-09-23T13:51:22Z</time>
      </trkpt>
      <trkpt lat="43.94357" lon="6.22055">
        <ele>774.3</ele>
        <time>2018-09-23T13:51:35Z</time>
      </trkpt>
      <trkpt lat="43.94363" lon="6.22066">
        <ele>772.7</ele>
        <time>2018-09-23T13:51:48Z</time>
      </trkpt>
      <trkpt lat="43.94369" lon="6.22077">
        <ele>770.7</ele>
        <time>2018-09-23T13:52:00Z</time>
      </trkpt>
      <trkpt lat="43.94376" lon="6.22084">
        <ele>769.1</ele>
        <time>2018-09-23T13:52:11Z</time>
      </trkpt>
      <trkpt lat="43.94385" lon="6.22089">
        <ele>767.6</ele>
        <time>2018-09-23T13:52:22Z</time>
      </trkpt>
      <trkpt lat="43.94393" lon="6.22095">
        <ele>766</ele>
        <time>2018-09-23T13:52:33Z</time>
      </trkpt>
      <trkpt lat="43.94403" lon="6.22096">
        <ele>764.3</ele>
        <time>2018-09-23T13:52:45Z</time>
      </trkpt>
      <trkpt lat="43.94412" lon="6.22097">
        <ele>762.2</ele>
        <time>2018-09-23T13:52:58Z</time>
      </trkpt>
      <trkpt lat="43.94418" lon="6.22108">
        <ele>759.9</ele>
        <time>2018-09-23T13:53:13Z</time>
      </trkpt>
      <trkpt lat="43.94417" lon="6.22121">
        <ele>757.6</ele>
        <time>2018-09-23T13:53:27Z</time>
      </trkpt>
      <trkpt lat="43.94415" lon="6.22134">
        <ele>755.7</ele>
        <time>2018-09-23T13:53:40Z</time>
      </trkpt>
      <trkpt lat="43.94414" lon="6.22147">
        <ele>754.4</ele>
        <time>2018-09-23T13:53:50Z</time>
      </trkpt>
      <trkpt lat="43.94416" lon="6.2216">
        <ele>753.4</ele>
        <time>2018-09-23T13:53:58Z</time>
      </trkpt>
      <trkpt lat="43.94421" lon="6.22172">
        <ele>751.7</ele>
        <time>2018-09-23T13:54:13Z</time>
      </trkpt>
      <trkpt lat="43.9443" lon="6.22173">
        <ele>745.5</ele>
        <time>2018-09-23T13:54:59Z</time>
      </trkpt>
      <trkpt lat="43.94435" lon="6.22184">
        <ele>744</ele>
        <time>2018-09-23T13:55:09Z</time>
      </trkpt>
      <trkpt lat="43.94441" lon="6.22194">
        <ele>742.2</ele>
        <time>2018-09-23T13:55:22Z</time>
      </trkpt>
      <trkpt lat="43.94448" lon="6.22186">
        <ele>737.6</ele>
        <time>2018-09-23T13:55:53Z</time>
      </trkpt>
      <trkpt lat="43.94456" lon="6.22193">
        <ele>734.6</ele>
        <time>2018-09-23T13:56:11Z</time>
      </trkpt>
      <trkpt lat="43.94461" lon="6.22204">
        <ele>732.9</ele>
        <time>2018-09-23T13:56:22Z</time>
      </trkpt>
      <trkpt lat="43.94467" lon="6.22215">
        <ele>730.8</ele>
        <time>2018-09-23T13:56:41Z</time>
      </trkpt>
      <trkpt lat="43.94473" lon="6.22228">
        <ele>727.4</ele>
        <time>2018-09-23T13:57:10Z</time>
      </trkpt>
      <trkpt lat="43.94481" lon="6.2222">
        <ele>725</ele>
        <time>2018-09-23T13:57:32Z</time>
      </trkpt>
      <trkpt lat="43.94488" lon="6.22229">
        <ele>723.6</ele>
        <time>2018-09-23T13:57:44Z</time>
      </trkpt>
      <trkpt lat="43.94495" lon="6.22239">
        <ele>722</ele>
        <time>2018-09-23T13:57:56Z</time>
      </trkpt>
      <trkpt lat="43.94504" lon="6.22238">
        <ele>717.3</ele>
        <time>2018-09-23T13:58:31Z</time>
      </trkpt>
      <trkpt lat="43.94509" lon="6.22249">
        <ele>715.2</ele>
        <time>2018-09-23T13:58:46Z</time>
      </trkpt>
      <trkpt lat="43.94515" lon="6.22258">
        <ele>713.1</ele>
        <time>2018-09-23T13:59:02Z</time>
      </trkpt>
      <trkpt lat="43.9452" lon="6.22268">
        <ele>711.4</ele>
        <time>2018-09-23T13:59:14Z</time>
      </trkpt>
      <trkpt lat="43.94527" lon="6.22276">
        <ele>709.9</ele>
        <time>2018-09-23T13:59:26Z</time>
      </trkpt>
      <trkpt lat="43.9453" lon="6.2229">
        <ele>708.4</ele>
        <time>2018-09-23T13:59:37Z</time>
      </trkpt>
      <trkpt lat="43.94534" lon="6.22301">
        <ele>707.5</ele>
        <time>2018-09-23T13:59:46Z</time>
      </trkpt>
      <trkpt lat="43.94539" lon="6.22312">
        <ele>706.4</ele>
        <time>2018-09-23T13:59:56Z</time>
      </trkpt>
      <trkpt lat="43.94544" lon="6.22323">
        <ele>705.1</ele>
        <time>2018-09-23T14:00:05Z</time>
      </trkpt>
      <trkpt lat="43.94548" lon="6.22334">
        <ele>703.6</ele>
        <time>2018-09-23T14:00:14Z</time>
      </trkpt>
      <trkpt lat="43.94551" lon="6.22347">
        <ele>702.1</ele>
        <time>2018-09-23T14:00:25Z</time>
      </trkpt>
      <trkpt lat="43.94555" lon="6.22358">
        <ele>700.5</ele>
        <time>2018-09-23T14:00:39Z</time>
      </trkpt>
      <trkpt lat="43.94555" lon="6.22372">
        <ele>699.1</ele>
        <time>2018-09-23T14:00:49Z</time>
      </trkpt>
      <trkpt lat="43.94558" lon="6.22385">
        <ele>698</ele>
        <time>2018-09-23T14:00:59Z</time>
      </trkpt>
      <trkpt lat="43.94566" lon="6.22392">
        <ele>696.8</ele>
        <time>2018-09-23T14:01:10Z</time>
      </trkpt>
      <trkpt lat="43.94573" lon="6.22401">
        <ele>696.3</ele>
        <time>2018-09-23T14:01:20Z</time>
      </trkpt>
      <trkpt lat="43.94573" lon="6.22414">
        <ele>695.9</ele>
        <time>2018-09-23T14:01:33Z</time>
      </trkpt>
      <trkpt lat="43.94571" lon="6.22427">
        <ele>695.2</ele>
        <time>2018-09-23T14:01:47Z</time>
      </trkpt>
      <trkpt lat="43.94578" lon="6.22419">
        <ele>693.6</ele>
        <time>2018-09-23T14:02:05Z</time>
      </trkpt>
      <trkpt lat="43.94583" lon="6.22409">
        <ele>691.9</ele>
        <time>2018-09-23T14:02:20Z</time>
      </trkpt>
      <trkpt lat="43.94587" lon="6.22397">
        <ele>690</ele>
        <time>2018-09-23T14:02:38Z</time>
      </trkpt>
      <trkpt lat="43.94595" lon="6.22404">
        <ele>688</ele>
        <time>2018-09-23T14:02:53Z</time>
      </trkpt>
      <trkpt lat="43.94602" lon="6.22396">
        <ele>683.7</ele>
        <time>2018-09-23T14:03:27Z</time>
      </trkpt>
      <trkpt lat="43.94609" lon="6.22405">
        <ele>682.1</ele>
        <time>2018-09-23T14:03:39Z</time>
      </trkpt>
      <trkpt lat="43.94612" lon="6.22417">
        <ele>678.9</ele>
        <time>2018-09-23T14:04:01Z</time>
      </trkpt>
      <trkpt lat="43.9461" lon="6.22442">
        <ele>675</ele>
        <time>2018-09-23T14:04:21Z</time>
      </trkpt>
      <trkpt lat="43.94611" lon="6.22455">
        <ele>674.3</ele>
        <time>2018-09-23T14:04:31Z</time>
      </trkpt>
      <trkpt lat="43.9461" lon="6.22468">
        <ele>672.1</ele>
        <time>2018-09-23T14:04:46Z</time>
      </trkpt>
      <trkpt lat="43.94617" lon="6.22477">
        <ele>669.4</ele>
        <time>2018-09-23T14:05:04Z</time>
      </trkpt>
      <trkpt lat="43.94622" lon="6.22466">
        <ele>667.8</ele>
        <time>2018-09-23T14:05:15Z</time>
      </trkpt>
      <trkpt lat="43.94629" lon="6.22457">
        <ele>666.2</ele>
        <time>2018-09-23T14:05:25Z</time>
      </trkpt>
      <trkpt lat="43.94632" lon="6.22445">
        <ele>665.2</ele>
        <time>2018-09-23T14:05:33Z</time>
      </trkpt>
      <trkpt lat="43.94635" lon="6.22433">
        <ele>663.7</ele>
        <time>2018-09-23T14:05:43Z</time>
      </trkpt>
      <trkpt lat="43.94644" lon="6.22428">
        <ele>661.8</ele>
        <time>2018-09-23T14:05:55Z</time>
      </trkpt>
      <trkpt lat="43.94653" lon="6.22425">
        <ele>660.3</ele>
        <time>2018-09-23T14:06:05Z</time>
      </trkpt>
      <trkpt lat="43.94651" lon="6.22438">
        <ele>658</ele>
        <time>2018-09-23T14:06:21Z</time>
      </trkpt>
      <trkpt lat="43.9466" lon="6.22442">
        <ele>656.2</ele>
        <time>2018-09-23T14:06:34Z</time>
      </trkpt>
      <trkpt lat="43.94668" lon="6.22435">
        <ele>654.7</ele>
        <time>2018-09-23T14:06:45Z</time>
      </trkpt>
      <trkpt lat="43.94677" lon="6.22428">
        <ele>652.5</ele>
        <time>2018-09-23T14:07:01Z</time>
      </trkpt>
      <trkpt lat="43.94683" lon="6.22438">
        <ele>649.6</ele>
        <time>2018-09-23T14:07:21Z</time>
      </trkpt>
      <trkpt lat="43.9469" lon="6.22447">
        <ele>647.6</ele>
        <time>2018-09-23T14:07:34Z</time>
      </trkpt>
      <trkpt lat="43.94698" lon="6.22453">
        <ele>645.3</ele>
        <time>2018-09-23T14:07:50Z</time>
      </trkpt>
      <trkpt lat="43.94699" lon="6.22466">
        <ele>643</ele>
        <time>2018-09-23T14:08:06Z</time>
      </trkpt>
      <trkpt lat="43.94708" lon="6.2247">
        <ele>640.9</ele>
        <time>2018-09-23T14:08:20Z</time>
      </trkpt>
      <trkpt lat="43.94715" lon="6.22479">
        <ele>639</ele>
        <time>2018-09-23T14:08:32Z</time>
      </trkpt>
      <trkpt lat="43.94724" lon="6.22483">
        <ele>636.5</ele>
        <time>2018-09-23T14:08:49Z</time>
      </trkpt>
      <trkpt lat="43.94732" lon="6.22493">
        <ele>633</ele>
        <time>2018-09-23T14:09:14Z</time>
      </trkpt>
      <trkpt lat="43.94741" lon="6.22499">
        <ele>629.9</ele>
        <time>2018-09-23T14:09:34Z</time>
      </trkpt>
      <trkpt lat="43.94735" lon="6.2251">
        <ele>626.9</ele>
        <time>2018-09-23T14:09:53Z</time>
      </trkpt>
      <trkpt lat="43.94732" lon="6.22522">
        <ele>624.8</ele>
        <time>2018-09-23T14:10:06Z</time>
      </trkpt>
      <trkpt lat="43.94733" lon="6.22541">
        <ele>622.2</ele>
        <time>2018-09-23T14:10:28Z</time>
      </trkpt>
      <trkpt lat="43.94739" lon="6.22551">
        <ele>620.9</ele>
        <time>2018-09-23T14:10:41Z</time>
      </trkpt>
      <trkpt lat="43.94746" lon="6.2256">
        <ele>619.6</ele>
        <time>2018-09-23T14:11:10Z</time>
      </trkpt>
      <trkpt lat="43.94754" lon="6.22562">
        <ele>618.2</ele>
        <time>2018-09-23T14:13:15Z</time>
      </trkpt>
      <trkpt lat="43.94759" lon="6.22551">
        <ele>618.2</ele>
        <time>2018-09-23T14:13:24Z</time>
      </trkpt>
      <trkpt lat="43.94765" lon="6.22542">
        <ele>618.2</ele>
        <time>2018-09-23T14:13:33Z</time>
      </trkpt>
      <trkpt lat="43.94772" lon="6.22534">
        <ele>618</ele>
        <time>2018-09-23T14:13:42Z</time>
      </trkpt>
      <trkpt lat="43.9478" lon="6.22528">
        <ele>618</ele>
        <time>2018-09-23T14:13:51Z</time>
      </trkpt>
      <trkpt lat="43.94786" lon="6.22517">
        <ele>617.7</ele>
        <time>2018-09-23T14:14:02Z</time>
      </trkpt>
      <trkpt lat="43.9479" lon="6.22506">
        <ele>617.6</ele>
        <time>2018-09-23T14:14:11Z</time>
      </trkpt>
      <trkpt lat="43.94793" lon="6.22493">
        <ele>617.4</ele>
        <time>2018-09-23T14:14:21Z</time>
      </trkpt>
      <trkpt lat="43.94794" lon="6.2248">
        <ele>617.1</ele>
        <time>2018-09-23T14:14:31Z</time>
      </trkpt>
      <trkpt lat="43.94797" lon="6.22468">
        <ele>616.8</ele>
        <time>2018-09-23T14:14:40Z</time>
      </trkpt>
      <trkpt lat="43.948" lon="6.22456">
        <ele>616.6</ele>
        <time>2018-09-23T14:14:50Z</time>
      </trkpt>
      <trkpt lat="43.94805" lon="6.22445">
        <ele>616.3</ele>
        <time>2018-09-23T14:15:02Z</time>
      </trkpt>
      <trkpt lat="43.94807" lon="6.22431">
        <ele>616</ele>
        <time>2018-09-23T14:15:13Z</time>
      </trkpt>
      <trkpt lat="43.94808" lon="6.22416">
        <ele>615.8</ele>
        <time>2018-09-23T14:15:24Z</time>
      </trkpt>
      <trkpt lat="43.94809" lon="6.22403">
        <ele>615.7</ele>
        <time>2018-09-23T14:15:34Z</time>
      </trkpt>
      <trkpt lat="43.94809" lon="6.2239">
        <ele>615.7</ele>
        <time>2018-09-23T14:15:44Z</time>
      </trkpt>
      <trkpt lat="43.94807" lon="6.22377">
        <ele>615.6</ele>
        <time>2018-09-23T14:15:54Z</time>
      </trkpt>
      <trkpt lat="43.94807" lon="6.22363">
        <ele>615.6</ele>
        <time>2018-09-23T14:16:01Z</time>
      </trkpt>
      <trkpt lat="43.94805" lon="6.2235">
        <ele>615.6</ele>
        <time>2018-09-23T14:16:09Z</time>
      </trkpt>
      <trkpt lat="43.94804" lon="6.22337">
        <ele>615.6</ele>
        <time>2018-09-23T14:16:19Z</time>
      </trkpt>
      <trkpt lat="43.94803" lon="6.22325">
        <ele>615.6</ele>
        <time>2018-09-23T14:16:30Z</time>
      </trkpt>
      <trkpt lat="43.94807" lon="6.22312">
        <ele>615.8</ele>
        <time>2018-09-23T14:16:39Z</time>
      </trkpt>
      <trkpt lat="43.94809" lon="6.223">
        <ele>616.1</ele>
        <time>2018-09-23T14:16:49Z</time>
      </trkpt>
      <trkpt lat="43.94808" lon="6.22286">
        <ele>616.7</ele>
        <time>2018-09-23T14:17:01Z</time>
      </trkpt>
      <trkpt lat="43.94807" lon="6.22274">
        <ele>617.2</ele>
        <time>2018-09-23T14:17:08Z</time>
      </trkpt>
      <trkpt lat="43.9481" lon="6.22261">
        <ele>617.8</ele>
        <time>2018-09-23T14:17:18Z</time>
      </trkpt>
      <trkpt lat="43.94814" lon="6.22249">
        <ele>618.6</ele>
        <time>2018-09-23T14:17:28Z</time>
      </trkpt>
      <trkpt lat="43.94819" lon="6.22238">
        <ele>619.1</ele>
        <time>2018-09-23T14:17:37Z</time>
      </trkpt>
      <trkpt lat="43.94827" lon="6.22231">
        <ele>619.7</ele>
        <time>2018-09-23T14:17:45Z</time>
      </trkpt>
      <trkpt lat="43.94835" lon="6.22223">
        <ele>620.4</ele>
        <time>2018-09-23T14:17:55Z</time>
      </trkpt>
      <trkpt lat="43.94833" lon="6.22209">
        <ele>621.2</ele>
        <time>2018-09-23T14:18:05Z</time>
      </trkpt>
      <trkpt lat="43.94827" lon="6.22198">
        <ele>621.5</ele>
        <time>2018-09-23T14:18:12Z</time>
      </trkpt>
      <trkpt lat="43.94821" lon="6.22187">
        <ele>621.8</ele>
        <time>2018-09-23T14:18:19Z</time>
      </trkpt>
      <trkpt lat="43.94813" lon="6.2218">
        <ele>622</ele>
        <time>2018-09-23T14:18:26Z</time>
      </trkpt>
      <trkpt lat="43.94804" lon="6.22177">
        <ele>622.1</ele>
        <time>2018-09-23T14:18:33Z</time>
      </trkpt>
      <trkpt lat="43.94794" lon="6.22175">
        <ele>621.9</ele>
        <time>2018-09-23T14:18:41Z</time>
      </trkpt>
      <trkpt lat="43.94785" lon="6.22175">
        <ele>621.5</ele>
        <time>2018-09-23T14:18:50Z</time>
      </trkpt>
      <trkpt lat="43.94782" lon="6.22187">
        <ele>620.6</ele>
        <time>2018-09-23T14:19:09Z</time>
      </trkpt>
      <trkpt lat="43.94775" lon="6.22197">
        <ele>620</ele>
        <time>2018-09-23T14:19:19Z</time>
      </trkpt>
      <trkpt lat="43.94767" lon="6.22191">
        <ele>619.5</ele>
        <time>2018-09-23T14:19:29Z</time>
      </trkpt>
      <trkpt lat="43.94758" lon="6.22187">
        <ele>618.5</ele>
        <time>2018-09-23T14:20:02Z</time>
      </trkpt>
      <trkpt lat="43.94758" lon="6.22179">
        <ele>618.2</ele>
        <time>2018-09-23T14:24:08Z</time>
      </trkpt>
    </trkseg>
  </trk>
</gpx>